<?xml version="1.0" encoding="UTF-8"?>
<gpx version="1.1" creator="https://www.youtrack.es" xsi:schemaLocation="http://www.topografix.com/GPX/1/1 http://www.topografix.com/GPX/1/1/gpx.xsd http://www.garmin.com/xmlschemas/GpxExtensions/v3 http://www.garmin.com/xmlschemas/GpxExtensionsv3.xsd http://www.garmin.com/xmlschemas/TrackPointExtension/v1 http://www.garmin.com/xmlschemas/TrackPointExtensionv1.xsd" xmlns:gpxtpx="http://www.garmin.com/xmlschemas/TrackPointExtension/v1" xmlns:gpxx="http://www.garmin.com/xmlschemas/GpxExtensions/v3" xmlns:xsi="http://www.w3.org/2001/XMLSchema-instance">
  <metadata>
    <link href="https://www.youtrack.es">
      <text>YouTrack.es</text>
    </link>
    <time>2026-05-08T10:29:20Z</time>
  </metadata>
  <trk>
    <src>https://www.youtrack.es</src>
    <link href="https://www.youtrack.es/ruta/15880-4skei-a-loen">
      <text>YouTrack.es</text>
    </link>
    <trkseg>
      <trkpt lat="61.574740" lon="6.483681">
        <ele>207.338</ele>
        <time>2012-07-25T11:13:55Z</time>
      </trkpt>
      <trkpt lat="61.574577" lon="6.483554">
        <ele>206.370</ele>
        <time>2012-07-25T11:14:08Z</time>
      </trkpt>
      <trkpt lat="61.574542" lon="6.483662">
        <ele>205.917</ele>
        <time>2012-07-25T11:14:55Z</time>
      </trkpt>
      <trkpt lat="61.574514" lon="6.483500">
        <ele>206.307</ele>
        <time>2012-07-25T11:15:22Z</time>
      </trkpt>
      <trkpt lat="61.574555" lon="6.483667">
        <ele>205.966</ele>
        <time>2012-07-25T11:15:38Z</time>
      </trkpt>
      <trkpt lat="61.574639" lon="6.483622">
        <ele>204.990</ele>
        <time>2012-07-25T11:29:54Z</time>
      </trkpt>
      <trkpt lat="61.574174" lon="6.483058">
        <ele>210.292</ele>
        <time>2012-07-25T11:30:42Z</time>
      </trkpt>
      <trkpt lat="61.573482" lon="6.482660">
        <ele>213.668</ele>
        <time>2012-07-25T11:31:23Z</time>
      </trkpt>
      <trkpt lat="61.572930" lon="6.480846">
        <ele>207.343</ele>
        <time>2012-07-25T14:43:18Z</time>
      </trkpt>
      <trkpt lat="61.573144" lon="6.480852">
        <ele>209.781</ele>
        <time>2012-07-25T14:43:43Z</time>
      </trkpt>
      <trkpt lat="61.573126" lon="6.481316">
        <ele>217.446</ele>
        <time>2012-07-25T14:45:29Z</time>
      </trkpt>
      <trkpt lat="61.574227" lon="6.482606">
        <ele>216.023</ele>
        <time>2012-07-25T14:46:00Z</time>
      </trkpt>
      <trkpt lat="61.576143" lon="6.483716">
        <ele>215.083</ele>
        <time>2012-07-25T14:46:36Z</time>
      </trkpt>
      <trkpt lat="61.579334" lon="6.491572">
        <ele>216.011</ele>
        <time>2012-07-25T14:48:15Z</time>
      </trkpt>
      <trkpt lat="61.580106" lon="6.492468">
        <ele>214.007</ele>
        <time>2012-07-25T14:48:30Z</time>
      </trkpt>
      <trkpt lat="61.580406" lon="6.492608">
        <ele>213.625</ele>
        <time>2012-07-25T14:48:35Z</time>
      </trkpt>
      <trkpt lat="61.583276" lon="6.492869">
        <ele>213.699</ele>
        <time>2012-07-25T14:49:30Z</time>
      </trkpt>
      <trkpt lat="61.584193" lon="6.493304">
        <ele>211.621</ele>
        <time>2012-07-25T14:50:56Z</time>
      </trkpt>
      <trkpt lat="61.585002" lon="6.494145">
        <ele>212.117</ele>
        <time>2012-07-25T14:51:13Z</time>
      </trkpt>
      <trkpt lat="61.590655" lon="6.501763">
        <ele>212.682</ele>
        <time>2012-07-25T14:53:25Z</time>
      </trkpt>
      <trkpt lat="61.591369" lon="6.503021">
        <ele>212.690</ele>
        <time>2012-07-25T14:53:41Z</time>
      </trkpt>
      <trkpt lat="61.593038" lon="6.506736">
        <ele>214.065</ele>
        <time>2012-07-25T14:54:28Z</time>
      </trkpt>
      <trkpt lat="61.593690" lon="6.507271">
        <ele>214.048</ele>
        <time>2012-07-25T14:54:44Z</time>
      </trkpt>
      <trkpt lat="61.594678" lon="6.507766">
        <ele>213.161</ele>
        <time>2012-07-25T14:55:03Z</time>
      </trkpt>
      <trkpt lat="61.595464" lon="6.508682">
        <ele>213.617</ele>
        <time>2012-07-25T14:55:19Z</time>
      </trkpt>
      <trkpt lat="61.595865" lon="6.510150">
        <ele>212.607</ele>
        <time>2012-07-25T14:55:33Z</time>
      </trkpt>
      <trkpt lat="61.596174" lon="6.513028">
        <ele>213.147</ele>
        <time>2012-07-25T14:56:01Z</time>
      </trkpt>
      <trkpt lat="61.596548" lon="6.513946">
        <ele>210.271</ele>
        <time>2012-07-25T14:56:12Z</time>
      </trkpt>
      <trkpt lat="61.596922" lon="6.514359">
        <ele>206.393</ele>
        <time>2012-07-25T14:56:18Z</time>
      </trkpt>
      <trkpt lat="61.597559" lon="6.514499">
        <ele>203.529</ele>
        <time>2012-07-25T14:56:26Z</time>
      </trkpt>
      <trkpt lat="61.598422" lon="6.514234">
        <ele>204.914</ele>
        <time>2012-07-25T14:56:38Z</time>
      </trkpt>
      <trkpt lat="61.598906" lon="6.514403">
        <ele>208.712</ele>
        <time>2012-07-25T14:56:52Z</time>
      </trkpt>
      <trkpt lat="61.599753" lon="6.515567">
        <ele>211.297</ele>
        <time>2012-07-25T14:57:20Z</time>
      </trkpt>
      <trkpt lat="61.600456" lon="6.517206">
        <ele>206.335</ele>
        <time>2012-07-25T14:57:40Z</time>
      </trkpt>
      <trkpt lat="61.601197" lon="6.518319">
        <ele>206.386</ele>
        <time>2012-07-25T14:57:56Z</time>
      </trkpt>
      <trkpt lat="61.602051" lon="6.518962">
        <ele>207.814</ele>
        <time>2012-07-25T14:58:14Z</time>
      </trkpt>
      <trkpt lat="61.603190" lon="6.519278">
        <ele>211.207</ele>
        <time>2012-07-25T14:58:45Z</time>
      </trkpt>
      <trkpt lat="61.605580" lon="6.520490">
        <ele>210.786</ele>
        <time>2012-07-25T14:59:44Z</time>
      </trkpt>
      <trkpt lat="61.606356" lon="6.521388">
        <ele>208.740</ele>
        <time>2012-07-25T15:00:00Z</time>
      </trkpt>
      <trkpt lat="61.607544" lon="6.523654">
        <ele>210.242</ele>
        <time>2012-07-25T15:00:30Z</time>
      </trkpt>
      <trkpt lat="61.609230" lon="6.528725">
        <ele>230.478</ele>
        <time>2012-07-25T15:05:20Z</time>
      </trkpt>
      <trkpt lat="61.609795" lon="6.529804">
        <ele>231.383</ele>
        <time>2012-07-25T15:07:37Z</time>
      </trkpt>
      <trkpt lat="61.610749" lon="6.531114">
        <ele>231.311</ele>
        <time>2012-07-25T15:08:19Z</time>
      </trkpt>
      <trkpt lat="61.611256" lon="6.531586">
        <ele>232.376</ele>
        <time>2012-07-25T15:08:35Z</time>
      </trkpt>
      <trkpt lat="61.611947" lon="6.531732">
        <ele>232.833</ele>
        <time>2012-07-25T15:08:53Z</time>
      </trkpt>
      <trkpt lat="61.613335" lon="6.530916">
        <ele>225.123</ele>
        <time>2012-07-25T15:09:16Z</time>
      </trkpt>
      <trkpt lat="61.615748" lon="6.530586">
        <ele>215.015</ele>
        <time>2012-07-25T15:09:41Z</time>
      </trkpt>
      <trkpt lat="61.617708" lon="6.529626">
        <ele>211.207</ele>
        <time>2012-07-25T15:11:08Z</time>
      </trkpt>
      <trkpt lat="61.618155" lon="6.529663">
        <ele>209.296</ele>
        <time>2012-07-25T15:11:14Z</time>
      </trkpt>
      <trkpt lat="61.619434" lon="6.530330">
        <ele>209.280</ele>
        <time>2012-07-25T15:11:39Z</time>
      </trkpt>
      <trkpt lat="61.619468" lon="6.530491">
        <ele>207.322</ele>
        <time>2012-07-25T15:13:08Z</time>
      </trkpt>
      <trkpt lat="61.619553" lon="6.530388">
        <ele>208.768</ele>
        <time>2012-07-25T15:13:48Z</time>
      </trkpt>
      <trkpt lat="61.620645" lon="6.530462">
        <ele>208.343</ele>
        <time>2012-07-25T15:14:21Z</time>
      </trkpt>
      <trkpt lat="61.621469" lon="6.530196">
        <ele>208.321</ele>
        <time>2012-07-25T15:14:39Z</time>
      </trkpt>
      <trkpt lat="61.623472" lon="6.528804">
        <ele>207.826</ele>
        <time>2012-07-25T15:15:17Z</time>
      </trkpt>
      <trkpt lat="61.625199" lon="6.528087">
        <ele>207.853</ele>
        <time>2012-07-25T15:15:51Z</time>
      </trkpt>
      <trkpt lat="61.627702" lon="6.526389">
        <ele>208.304</ele>
        <time>2012-07-25T15:16:43Z</time>
      </trkpt>
      <trkpt lat="61.629641" lon="6.525351">
        <ele>208.714</ele>
        <time>2012-07-25T15:18:48Z</time>
      </trkpt>
      <trkpt lat="61.632220" lon="6.524212">
        <ele>209.707</ele>
        <time>2012-07-25T15:20:44Z</time>
      </trkpt>
      <trkpt lat="61.632850" lon="6.524264">
        <ele>208.318</ele>
        <time>2012-07-25T15:20:56Z</time>
      </trkpt>
      <trkpt lat="61.633649" lon="6.525177">
        <ele>205.962</ele>
        <time>2012-07-25T15:21:11Z</time>
      </trkpt>
      <trkpt lat="61.633892" lon="6.525363">
        <ele>204.414</ele>
        <time>2012-07-25T15:21:15Z</time>
      </trkpt>
      <trkpt lat="61.634232" lon="6.525367">
        <ele>203.540</ele>
        <time>2012-07-25T15:21:20Z</time>
      </trkpt>
      <trkpt lat="61.635892" lon="6.524153">
        <ele>198.715</ele>
        <time>2012-07-25T15:21:44Z</time>
      </trkpt>
      <trkpt lat="61.636953" lon="6.523723">
        <ele>199.183</ele>
        <time>2012-07-25T15:22:03Z</time>
      </trkpt>
      <trkpt lat="61.637568" lon="6.522859">
        <ele>196.318</ele>
        <time>2012-07-25T15:22:28Z</time>
      </trkpt>
      <trkpt lat="61.637641" lon="6.522541">
        <ele>196.375</ele>
        <time>2012-07-25T15:22:46Z</time>
      </trkpt>
      <trkpt lat="61.637998" lon="6.522289">
        <ele>193.828</ele>
        <time>2012-07-25T15:30:20Z</time>
      </trkpt>
      <trkpt lat="61.638211" lon="6.522593">
        <ele>194.320</ele>
        <time>2012-07-25T15:34:43Z</time>
      </trkpt>
      <trkpt lat="61.638625" lon="6.522732">
        <ele>193.807</ele>
        <time>2012-07-25T15:35:45Z</time>
      </trkpt>
      <trkpt lat="61.639637" lon="6.522553">
        <ele>194.870</ele>
        <time>2012-07-25T15:36:38Z</time>
      </trkpt>
      <trkpt lat="61.639794" lon="6.522712">
        <ele>195.844</ele>
        <time>2012-07-25T15:36:58Z</time>
      </trkpt>
      <trkpt lat="61.641358" lon="6.521452">
        <ele>195.896</ele>
        <time>2012-07-25T15:37:41Z</time>
      </trkpt>
      <trkpt lat="61.642524" lon="6.520988">
        <ele>195.332</ele>
        <time>2012-07-25T15:38:02Z</time>
      </trkpt>
      <trkpt lat="61.644224" lon="6.520917">
        <ele>195.337</ele>
        <time>2012-07-25T15:38:33Z</time>
      </trkpt>
      <trkpt lat="61.645122" lon="6.521068">
        <ele>194.845</ele>
        <time>2012-07-25T15:38:50Z</time>
      </trkpt>
      <trkpt lat="61.646231" lon="6.520764">
        <ele>194.830</ele>
        <time>2012-07-25T15:39:09Z</time>
      </trkpt>
      <trkpt lat="61.648218" lon="6.519598">
        <ele>194.851</ele>
        <time>2012-07-25T15:39:43Z</time>
      </trkpt>
      <trkpt lat="61.649331" lon="6.519156">
        <ele>195.301</ele>
        <time>2012-07-25T15:40:01Z</time>
      </trkpt>
      <trkpt lat="61.654680" lon="6.518022">
        <ele>195.811</ele>
        <time>2012-07-25T15:41:30Z</time>
      </trkpt>
      <trkpt lat="61.657741" lon="6.516492">
        <ele>195.307</ele>
        <time>2012-07-25T15:42:22Z</time>
      </trkpt>
      <trkpt lat="61.658729" lon="6.516501">
        <ele>195.368</ele>
        <time>2012-07-25T15:42:39Z</time>
      </trkpt>
      <trkpt lat="61.660939" lon="6.517384">
        <ele>192.962</ele>
        <time>2012-07-25T15:43:14Z</time>
      </trkpt>
      <trkpt lat="61.663752" lon="6.516617">
        <ele>186.284</ele>
        <time>2012-07-25T15:43:51Z</time>
      </trkpt>
      <trkpt lat="61.664740" lon="6.516784">
        <ele>183.370</ele>
        <time>2012-07-25T15:44:03Z</time>
      </trkpt>
      <trkpt lat="61.668110" lon="6.517971">
        <ele>176.165</ele>
        <time>2012-07-25T15:44:46Z</time>
      </trkpt>
      <trkpt lat="61.669348" lon="6.518002">
        <ele>173.223</ele>
        <time>2012-07-25T15:45:02Z</time>
      </trkpt>
      <trkpt lat="61.670685" lon="6.518305">
        <ele>171.798</ele>
        <time>2012-07-25T15:45:20Z</time>
      </trkpt>
      <trkpt lat="61.672870" lon="6.519927">
        <ele>170.352</ele>
        <time>2012-07-25T15:45:54Z</time>
      </trkpt>
      <trkpt lat="61.673886" lon="6.520365">
        <ele>170.353</ele>
        <time>2012-07-25T15:46:11Z</time>
      </trkpt>
      <trkpt lat="61.678434" lon="6.520669">
        <ele>170.308</ele>
        <time>2012-07-25T15:47:34Z</time>
      </trkpt>
      <trkpt lat="61.679650" lon="6.520445">
        <ele>169.807</ele>
        <time>2012-07-25T15:47:57Z</time>
      </trkpt>
      <trkpt lat="61.680808" lon="6.519677">
        <ele>169.358</ele>
        <time>2012-07-25T15:48:21Z</time>
      </trkpt>
      <trkpt lat="61.682407" lon="6.519812">
        <ele>169.882</ele>
        <time>2012-07-25T15:48:47Z</time>
      </trkpt>
      <trkpt lat="61.684108" lon="6.519430">
        <ele>169.894</ele>
        <time>2012-07-25T15:49:23Z</time>
      </trkpt>
      <trkpt lat="61.685040" lon="6.519626">
        <ele>169.840</ele>
        <time>2012-07-25T15:49:41Z</time>
      </trkpt>
      <trkpt lat="61.686806" lon="6.521194">
        <ele>169.395</ele>
        <time>2012-07-25T15:50:15Z</time>
      </trkpt>
      <trkpt lat="61.687903" lon="6.521424">
        <ele>168.983</ele>
        <time>2012-07-25T15:50:34Z</time>
      </trkpt>
      <trkpt lat="61.688536" lon="6.521723">
        <ele>171.368</ele>
        <time>2012-07-25T15:50:47Z</time>
      </trkpt>
      <trkpt lat="61.691675" lon="6.525156">
        <ele>178.089</ele>
        <time>2012-07-25T15:52:31Z</time>
      </trkpt>
      <trkpt lat="61.692782" lon="6.526064">
        <ele>178.006</ele>
        <time>2012-07-25T16:03:10Z</time>
      </trkpt>
      <trkpt lat="61.694110" lon="6.527891">
        <ele>172.226</ele>
        <time>2012-07-25T16:03:38Z</time>
      </trkpt>
      <trkpt lat="61.695908" lon="6.529660">
        <ele>164.507</ele>
        <time>2012-07-25T16:04:01Z</time>
      </trkpt>
      <trkpt lat="61.696906" lon="6.530954">
        <ele>159.261</ele>
        <time>2012-07-25T16:04:14Z</time>
      </trkpt>
      <trkpt lat="61.697596" lon="6.531457">
        <ele>156.445</ele>
        <time>2012-07-25T16:04:22Z</time>
      </trkpt>
      <trkpt lat="61.699234" lon="6.531559">
        <ele>151.537</ele>
        <time>2012-07-25T16:04:41Z</time>
      </trkpt>
      <trkpt lat="61.700381" lon="6.532279">
        <ele>147.273</ele>
        <time>2012-07-25T16:04:55Z</time>
      </trkpt>
      <trkpt lat="61.701567" lon="6.532814">
        <ele>144.818</ele>
        <time>2012-07-25T16:05:09Z</time>
      </trkpt>
      <trkpt lat="61.704416" lon="6.533541">
        <ele>146.356</ele>
        <time>2012-07-25T16:05:54Z</time>
      </trkpt>
      <trkpt lat="61.706157" lon="6.534768">
        <ele>146.721</ele>
        <time>2012-07-25T16:06:29Z</time>
      </trkpt>
      <trkpt lat="61.706965" lon="6.534738">
        <ele>146.378</ele>
        <time>2012-07-25T16:06:44Z</time>
      </trkpt>
      <trkpt lat="61.708034" lon="6.533962">
        <ele>146.733</ele>
        <time>2012-07-25T16:07:06Z</time>
      </trkpt>
      <trkpt lat="61.711366" lon="6.532346">
        <ele>149.626</ele>
        <time>2012-07-25T16:08:14Z</time>
      </trkpt>
      <trkpt lat="61.712038" lon="6.531680">
        <ele>149.107</ele>
        <time>2012-07-25T16:08:29Z</time>
      </trkpt>
      <trkpt lat="61.713501" lon="6.529280">
        <ele>148.220</ele>
        <time>2012-07-25T16:09:01Z</time>
      </trkpt>
      <trkpt lat="61.714881" lon="6.528137">
        <ele>148.724</ele>
        <time>2012-07-25T16:10:09Z</time>
      </trkpt>
      <trkpt lat="61.715001" lon="6.528233">
        <ele>149.116</ele>
        <time>2012-07-25T16:10:49Z</time>
      </trkpt>
      <trkpt lat="61.716608" lon="6.527960">
        <ele>152.512</ele>
        <time>2012-07-25T16:11:35Z</time>
      </trkpt>
      <trkpt lat="61.717121" lon="6.527714">
        <ele>153.527</ele>
        <time>2012-07-25T16:11:50Z</time>
      </trkpt>
      <trkpt lat="61.717589" lon="6.527266">
        <ele>153.515</ele>
        <time>2012-07-25T16:12:04Z</time>
      </trkpt>
      <trkpt lat="61.718081" lon="6.526596">
        <ele>153.510</ele>
        <time>2012-07-25T16:12:18Z</time>
      </trkpt>
      <trkpt lat="61.719789" lon="6.523388">
        <ele>151.186</ele>
        <time>2012-07-25T16:13:08Z</time>
      </trkpt>
      <trkpt lat="61.721475" lon="6.521157">
        <ele>145.360</ele>
        <time>2012-07-25T16:13:36Z</time>
      </trkpt>
      <trkpt lat="61.726114" lon="6.513514">
        <ele>142.926</ele>
        <time>2012-07-25T16:16:08Z</time>
      </trkpt>
      <trkpt lat="61.727486" lon="6.511939">
        <ele>140.007</ele>
        <time>2012-07-25T16:17:02Z</time>
      </trkpt>
      <trkpt lat="61.731758" lon="6.507849">
        <ele>137.671</ele>
        <time>2012-07-25T16:18:19Z</time>
      </trkpt>
      <trkpt lat="61.732803" lon="6.506462">
        <ele>141.555</ele>
        <time>2012-07-25T16:19:02Z</time>
      </trkpt>
      <trkpt lat="61.733098" lon="6.505566">
        <ele>141.557</ele>
        <time>2012-07-25T16:19:27Z</time>
      </trkpt>
      <trkpt lat="61.733428" lon="6.505593">
        <ele>141.913</ele>
        <time>2012-07-25T16:19:38Z</time>
      </trkpt>
      <trkpt lat="61.734052" lon="6.505947">
        <ele>145.398</ele>
        <time>2012-07-25T16:20:09Z</time>
      </trkpt>
      <trkpt lat="61.735599" lon="6.507035">
        <ele>150.676</ele>
        <time>2012-07-25T16:21:18Z</time>
      </trkpt>
      <trkpt lat="61.736258" lon="6.508058">
        <ele>155.471</ele>
        <time>2012-07-25T16:21:56Z</time>
      </trkpt>
      <trkpt lat="61.736918" lon="6.510301">
        <ele>166.031</ele>
        <time>2012-07-25T16:23:15Z</time>
      </trkpt>
      <trkpt lat="61.737337" lon="6.510903">
        <ele>170.861</ele>
        <time>2012-07-25T16:23:49Z</time>
      </trkpt>
      <trkpt lat="61.737573" lon="6.510987">
        <ele>173.207</ele>
        <time>2012-07-25T16:24:06Z</time>
      </trkpt>
      <trkpt lat="61.737808" lon="6.510889">
        <ele>174.607</ele>
        <time>2012-07-25T16:24:22Z</time>
      </trkpt>
      <trkpt lat="61.738506" lon="6.509473">
        <ele>184.296</ele>
        <time>2012-07-25T16:25:33Z</time>
      </trkpt>
      <trkpt lat="61.739435" lon="6.509213">
        <ele>192.450</ele>
        <time>2012-07-25T16:26:42Z</time>
      </trkpt>
      <trkpt lat="61.739623" lon="6.508983">
        <ele>194.332</ele>
        <time>2012-07-25T16:26:58Z</time>
      </trkpt>
      <trkpt lat="61.739933" lon="6.508060">
        <ele>199.628</ele>
        <time>2012-07-25T16:27:38Z</time>
      </trkpt>
      <trkpt lat="61.740037" lon="6.507126">
        <ele>203.953</ele>
        <time>2012-07-25T16:29:17Z</time>
      </trkpt>
      <trkpt lat="61.740840" lon="6.505226">
        <ele>216.041</ele>
        <time>2012-07-25T16:30:48Z</time>
      </trkpt>
      <trkpt lat="61.741843" lon="6.502058">
        <ele>231.856</ele>
        <time>2012-07-25T16:33:07Z</time>
      </trkpt>
      <trkpt lat="61.742213" lon="6.499457">
        <ele>244.314</ele>
        <time>2012-07-25T16:34:59Z</time>
      </trkpt>
      <trkpt lat="61.743797" lon="6.494774">
        <ele>270.854</ele>
        <time>2012-07-25T16:39:08Z</time>
      </trkpt>
      <trkpt lat="61.744085" lon="6.492825">
        <ele>278.909</ele>
        <time>2012-07-25T16:40:18Z</time>
      </trkpt>
      <trkpt lat="61.744206" lon="6.490441">
        <ele>287.107</ele>
        <time>2012-07-25T16:41:24Z</time>
      </trkpt>
      <trkpt lat="61.744106" lon="6.485558">
        <ele>300.164</ele>
        <time>2012-07-25T16:44:20Z</time>
      </trkpt>
      <trkpt lat="61.744326" lon="6.479917">
        <ele>315.998</ele>
        <time>2012-07-25T16:47:02Z</time>
      </trkpt>
      <trkpt lat="61.743784" lon="6.475293">
        <ele>329.470</ele>
        <time>2012-07-25T16:49:14Z</time>
      </trkpt>
      <trkpt lat="61.743769" lon="6.473987">
        <ele>332.336</ele>
        <time>2012-07-25T16:49:51Z</time>
      </trkpt>
      <trkpt lat="61.743975" lon="6.472305">
        <ele>333.781</ele>
        <time>2012-07-25T16:50:24Z</time>
      </trkpt>
      <trkpt lat="61.743934" lon="6.470576">
        <ele>341.499</ele>
        <time>2012-07-25T16:51:22Z</time>
      </trkpt>
      <trkpt lat="61.744309" lon="6.464307">
        <ele>362.184</ele>
        <time>2012-07-25T16:54:32Z</time>
      </trkpt>
      <trkpt lat="61.744539" lon="6.463033">
        <ele>368.331</ele>
        <time>2012-07-25T16:55:25Z</time>
      </trkpt>
      <trkpt lat="61.744768" lon="6.462884">
        <ele>370.761</ele>
        <time>2012-07-25T16:55:45Z</time>
      </trkpt>
      <trkpt lat="61.745215" lon="6.463686">
        <ele>376.007</ele>
        <time>2012-07-25T16:56:35Z</time>
      </trkpt>
      <trkpt lat="61.747122" lon="6.468529">
        <ele>403.907</ele>
        <time>2012-07-25T17:08:39Z</time>
      </trkpt>
      <trkpt lat="61.748339" lon="6.469877">
        <ele>414.576</ele>
        <time>2012-07-25T17:16:32Z</time>
      </trkpt>
      <trkpt lat="61.749118" lon="6.471310">
        <ele>424.110</ele>
        <time>2012-07-25T17:17:50Z</time>
      </trkpt>
      <trkpt lat="61.750551" lon="6.476640">
        <ele>451.592</ele>
        <time>2012-07-25T17:21:31Z</time>
      </trkpt>
      <trkpt lat="61.751135" lon="6.477321">
        <ele>457.268</ele>
        <time>2012-07-25T17:22:19Z</time>
      </trkpt>
      <trkpt lat="61.752323" lon="6.478027">
        <ele>468.363</ele>
        <time>2012-07-25T17:23:47Z</time>
      </trkpt>
      <trkpt lat="61.752838" lon="6.478563">
        <ele>474.131</ele>
        <time>2012-07-25T17:24:30Z</time>
      </trkpt>
      <trkpt lat="61.753952" lon="6.481019">
        <ele>489.996</ele>
        <time>2012-07-25T17:26:38Z</time>
      </trkpt>
      <trkpt lat="61.756014" lon="6.483371">
        <ele>511.196</ele>
        <time>2012-07-25T17:30:06Z</time>
      </trkpt>
      <trkpt lat="61.756528" lon="6.484386">
        <ele>517.331</ele>
        <time>2012-07-25T17:31:02Z</time>
      </trkpt>
      <trkpt lat="61.757469" lon="6.486921">
        <ele>530.324</ele>
        <time>2012-07-25T17:32:52Z</time>
      </trkpt>
      <trkpt lat="61.758420" lon="6.490880">
        <ele>549.107</ele>
        <time>2012-07-25T17:35:38Z</time>
      </trkpt>
      <trkpt lat="61.758365" lon="6.495007">
        <ele>567.332</ele>
        <time>2012-07-25T17:38:18Z</time>
      </trkpt>
      <trkpt lat="61.757549" lon="6.496751">
        <ele>576.956</ele>
        <time>2012-07-25T17:40:01Z</time>
      </trkpt>
      <trkpt lat="61.757458" lon="6.497747">
        <ele>581.318</ele>
        <time>2012-07-25T17:40:45Z</time>
      </trkpt>
      <trkpt lat="61.757646" lon="6.498459">
        <ele>584.674</ele>
        <time>2012-07-25T17:41:19Z</time>
      </trkpt>
      <trkpt lat="61.758842" lon="6.500131">
        <ele>596.629</ele>
        <time>2012-07-25T17:43:13Z</time>
      </trkpt>
      <trkpt lat="61.760410" lon="6.500671">
        <ele>610.167</ele>
        <time>2012-07-25T17:45:36Z</time>
      </trkpt>
      <trkpt lat="61.761526" lon="6.501612">
        <ele>620.732</ele>
        <time>2012-07-25T17:47:22Z</time>
      </trkpt>
      <trkpt lat="61.763470" lon="6.503630">
        <ele>638.016</ele>
        <time>2012-07-25T17:50:22Z</time>
      </trkpt>
      <trkpt lat="61.765639" lon="6.504185">
        <ele>641.376</ele>
        <time>2012-07-25T17:52:08Z</time>
      </trkpt>
      <trkpt lat="61.765983" lon="6.504604">
        <ele>638.913</ele>
        <time>2012-07-25T17:52:17Z</time>
      </trkpt>
      <trkpt lat="61.766233" lon="6.505431">
        <ele>639.907</ele>
        <time>2012-07-25T18:21:52Z</time>
      </trkpt>
      <trkpt lat="61.765934" lon="6.504495">
        <ele>635.634</ele>
        <time>2012-07-25T18:22:46Z</time>
      </trkpt>
      <trkpt lat="61.765751" lon="6.504410">
        <ele>637.068</ele>
        <time>2012-07-25T18:22:54Z</time>
      </trkpt>
      <trkpt lat="61.765803" lon="6.504198">
        <ele>638.550</ele>
        <time>2012-07-25T18:23:00Z</time>
      </trkpt>
      <trkpt lat="61.768350" lon="6.504791">
        <ele>637.576</ele>
        <time>2012-07-25T18:24:17Z</time>
      </trkpt>
      <trkpt lat="61.769217" lon="6.504854">
        <ele>633.771</ele>
        <time>2012-07-25T18:24:32Z</time>
      </trkpt>
      <trkpt lat="61.769828" lon="6.504657">
        <ele>630.399</ele>
        <time>2012-07-25T18:24:41Z</time>
      </trkpt>
      <trkpt lat="61.772250" lon="6.502389">
        <ele>612.534</ele>
        <time>2012-07-25T18:25:17Z</time>
      </trkpt>
      <trkpt lat="61.773180" lon="6.499811">
        <ele>601.432</ele>
        <time>2012-07-25T18:25:35Z</time>
      </trkpt>
      <trkpt lat="61.773611" lon="6.499195">
        <ele>599.592</ele>
        <time>2012-07-25T18:25:41Z</time>
      </trkpt>
      <trkpt lat="61.775948" lon="6.497051">
        <ele>591.411</ele>
        <time>2012-07-25T18:26:26Z</time>
      </trkpt>
      <trkpt lat="61.776854" lon="6.495831">
        <ele>580.307</ele>
        <time>2012-07-25T18:26:39Z</time>
      </trkpt>
      <trkpt lat="61.777178" lon="6.495655">
        <ele>577.456</ele>
        <time>2012-07-25T18:26:43Z</time>
      </trkpt>
      <trkpt lat="61.777668" lon="6.495889">
        <ele>576.560</ele>
        <time>2012-07-25T18:26:49Z</time>
      </trkpt>
      <trkpt lat="61.780831" lon="6.500157">
        <ele>557.732</ele>
        <time>2012-07-25T18:27:34Z</time>
      </trkpt>
      <trkpt lat="61.782368" lon="6.500856">
        <ele>550.568</ele>
        <time>2012-07-25T18:27:54Z</time>
      </trkpt>
      <trkpt lat="61.783397" lon="6.502101">
        <ele>543.893</ele>
        <time>2012-07-25T18:28:09Z</time>
      </trkpt>
      <trkpt lat="61.783760" lon="6.502186">
        <ele>540.431</ele>
        <time>2012-07-25T18:28:14Z</time>
      </trkpt>
      <trkpt lat="61.784116" lon="6.501855">
        <ele>536.676</ele>
        <time>2012-07-25T18:28:19Z</time>
      </trkpt>
      <trkpt lat="61.784508" lon="6.500752">
        <ele>528.954</ele>
        <time>2012-07-25T18:28:27Z</time>
      </trkpt>
      <trkpt lat="61.784851" lon="6.500307">
        <ele>527.456</ele>
        <time>2012-07-25T18:28:32Z</time>
      </trkpt>
      <trkpt lat="61.788202" lon="6.500328">
        <ele>505.311</ele>
        <time>2012-07-25T18:29:11Z</time>
      </trkpt>
      <trkpt lat="61.788668" lon="6.500050">
        <ele>502.907</ele>
        <time>2012-07-25T18:29:16Z</time>
      </trkpt>
      <trkpt lat="61.789611" lon="6.498726">
        <ele>492.828</ele>
        <time>2012-07-25T18:29:28Z</time>
      </trkpt>
      <trkpt lat="61.790416" lon="6.498521">
        <ele>487.172</ele>
        <time>2012-07-25T18:29:37Z</time>
      </trkpt>
      <trkpt lat="61.790758" lon="6.498238">
        <ele>483.794</ele>
        <time>2012-07-25T18:29:41Z</time>
      </trkpt>
      <trkpt lat="61.791968" lon="6.495696">
        <ele>467.880</ele>
        <time>2012-07-25T18:30:01Z</time>
      </trkpt>
      <trkpt lat="61.792404" lon="6.494273">
        <ele>464.045</ele>
        <time>2012-07-25T18:30:13Z</time>
      </trkpt>
      <trkpt lat="61.792261" lon="6.499904">
        <ele>436.623</ele>
        <time>2012-07-25T18:30:42Z</time>
      </trkpt>
      <trkpt lat="61.792028" lon="6.502821">
        <ele>422.268</ele>
        <time>2012-07-25T18:30:53Z</time>
      </trkpt>
      <trkpt lat="61.792250" lon="6.505752">
        <ele>412.552</ele>
        <time>2012-07-25T18:31:06Z</time>
      </trkpt>
      <trkpt lat="61.792150" lon="6.507839">
        <ele>402.953</ele>
        <time>2012-07-25T18:31:17Z</time>
      </trkpt>
      <trkpt lat="61.792350" lon="6.509444">
        <ele>396.208</ele>
        <time>2012-07-25T18:31:26Z</time>
      </trkpt>
      <trkpt lat="61.792858" lon="6.511220">
        <ele>386.607</ele>
        <time>2012-07-25T18:31:36Z</time>
      </trkpt>
      <trkpt lat="61.792692" lon="6.512846">
        <ele>378.468</ele>
        <time>2012-07-25T18:31:44Z</time>
      </trkpt>
      <trkpt lat="61.793010" lon="6.516201">
        <ele>362.682</ele>
        <time>2012-07-25T18:31:58Z</time>
      </trkpt>
      <trkpt lat="61.792954" lon="6.521180">
        <ele>340.944</ele>
        <time>2012-07-25T18:32:19Z</time>
      </trkpt>
      <trkpt lat="61.793620" lon="6.529938">
        <ele>296.730</ele>
        <time>2012-07-25T18:32:52Z</time>
      </trkpt>
      <trkpt lat="61.794158" lon="6.532935">
        <ele>288.175</ele>
        <time>2012-07-25T18:33:06Z</time>
      </trkpt>
      <trkpt lat="61.794367" lon="6.533085">
        <ele>287.613</ele>
        <time>2012-07-25T18:33:09Z</time>
      </trkpt>
      <trkpt lat="61.794548" lon="6.532774">
        <ele>284.778</ele>
        <time>2012-07-25T18:33:12Z</time>
      </trkpt>
      <trkpt lat="61.794694" lon="6.530472">
        <ele>274.119</ele>
        <time>2012-07-25T18:33:23Z</time>
      </trkpt>
      <trkpt lat="61.795834" lon="6.526002">
        <ele>251.009</ele>
        <time>2012-07-25T18:33:42Z</time>
      </trkpt>
      <trkpt lat="61.796514" lon="6.524552">
        <ele>244.319</ele>
        <time>2012-07-25T18:34:16Z</time>
      </trkpt>
      <trkpt lat="61.796633" lon="6.522622">
        <ele>234.207</ele>
        <time>2012-07-25T18:34:28Z</time>
      </trkpt>
      <trkpt lat="61.797855" lon="6.517495">
        <ele>209.764</ele>
        <time>2012-07-25T18:36:34Z</time>
      </trkpt>
      <trkpt lat="61.798014" lon="6.517571">
        <ele>208.348</ele>
        <time>2012-07-25T18:36:37Z</time>
      </trkpt>
      <trkpt lat="61.798079" lon="6.517844">
        <ele>206.340</ele>
        <time>2012-07-25T18:36:39Z</time>
      </trkpt>
      <trkpt lat="61.798262" lon="6.521550">
        <ele>187.166</ele>
        <time>2012-07-25T18:36:56Z</time>
      </trkpt>
      <trkpt lat="61.798657" lon="6.524957">
        <ele>172.241</ele>
        <time>2012-07-25T18:37:10Z</time>
      </trkpt>
      <trkpt lat="61.799080" lon="6.526556">
        <ele>161.659</ele>
        <time>2012-07-25T18:37:17Z</time>
      </trkpt>
      <trkpt lat="61.799435" lon="6.529850">
        <ele>149.614</ele>
        <time>2012-07-25T18:37:31Z</time>
      </trkpt>
      <trkpt lat="61.799619" lon="6.530170">
        <ele>148.733</ele>
        <time>2012-07-25T18:37:34Z</time>
      </trkpt>
      <trkpt lat="61.799850" lon="6.530080">
        <ele>145.823</ele>
        <time>2012-07-25T18:37:37Z</time>
      </trkpt>
      <trkpt lat="61.799953" lon="6.529798">
        <ele>143.915</ele>
        <time>2012-07-25T18:37:39Z</time>
      </trkpt>
      <trkpt lat="61.800801" lon="6.525484">
        <ele>119.807</ele>
        <time>2012-07-25T18:37:58Z</time>
      </trkpt>
      <trkpt lat="61.801635" lon="6.522207">
        <ele>102.046</ele>
        <time>2012-07-25T18:38:12Z</time>
      </trkpt>
      <trkpt lat="61.802008" lon="6.519639">
        <ele>94.430</ele>
        <time>2012-07-25T18:38:25Z</time>
      </trkpt>
      <trkpt lat="61.802187" lon="6.519789">
        <ele>93.442</ele>
        <time>2012-07-25T18:38:30Z</time>
      </trkpt>
      <trkpt lat="61.802450" lon="6.522182">
        <ele>81.938</ele>
        <time>2012-07-25T18:38:51Z</time>
      </trkpt>
      <trkpt lat="61.803204" lon="6.526359">
        <ele>64.683</ele>
        <time>2012-07-25T18:39:20Z</time>
      </trkpt>
      <trkpt lat="61.803485" lon="6.527208">
        <ele>61.781</ele>
        <time>2012-07-25T18:39:26Z</time>
      </trkpt>
      <trkpt lat="61.803876" lon="6.527624">
        <ele>58.396</ele>
        <time>2012-07-25T18:39:32Z</time>
      </trkpt>
      <trkpt lat="61.804202" lon="6.527452">
        <ele>54.917</ele>
        <time>2012-07-25T18:39:36Z</time>
      </trkpt>
      <trkpt lat="61.804401" lon="6.526862">
        <ele>51.187</ele>
        <time>2012-07-25T18:39:40Z</time>
      </trkpt>
      <trkpt lat="61.804386" lon="6.522760">
        <ele>31.415</ele>
        <time>2012-07-25T18:40:01Z</time>
      </trkpt>
      <trkpt lat="61.804619" lon="6.522395">
        <ele>28.007</ele>
        <time>2012-07-25T18:40:04Z</time>
      </trkpt>
      <trkpt lat="61.804815" lon="6.522354">
        <ele>26.634</ele>
        <time>2012-07-25T18:40:06Z</time>
      </trkpt>
      <trkpt lat="61.805311" lon="6.523221">
        <ele>20.398</ele>
        <time>2012-07-25T18:40:13Z</time>
      </trkpt>
      <trkpt lat="61.805639" lon="6.523166">
        <ele>17.910</ele>
        <time>2012-07-25T18:40:17Z</time>
      </trkpt>
      <trkpt lat="61.806137" lon="6.522100">
        <ele>12.666</ele>
        <time>2012-07-25T18:40:25Z</time>
      </trkpt>
      <trkpt lat="61.806285" lon="6.519646">
        <ele>7.421</ele>
        <time>2012-07-25T18:40:41Z</time>
      </trkpt>
      <trkpt lat="61.806612" lon="6.519361">
        <ele>6.479</ele>
        <time>2012-07-25T18:40:47Z</time>
      </trkpt>
      <trkpt lat="61.806919" lon="6.519584">
        <ele>6.444</ele>
        <time>2012-07-25T18:40:55Z</time>
      </trkpt>
      <trkpt lat="61.807199" lon="6.519585">
        <ele>6.435</ele>
        <time>2012-07-25T18:42:00Z</time>
      </trkpt>
      <trkpt lat="61.807765" lon="6.522129">
        <ele>4.986</ele>
        <time>2012-07-25T18:43:39Z</time>
      </trkpt>
      <trkpt lat="61.808527" lon="6.528433">
        <ele>4.514</ele>
        <time>2012-07-25T18:44:44Z</time>
      </trkpt>
      <trkpt lat="61.809584" lon="6.531512">
        <ele>4.907</ele>
        <time>2012-07-25T18:45:15Z</time>
      </trkpt>
      <trkpt lat="61.810462" lon="6.533112">
        <ele>5.426</ele>
        <time>2012-07-25T18:45:36Z</time>
      </trkpt>
      <trkpt lat="61.812064" lon="6.535069">
        <ele>5.490</ele>
        <time>2012-07-25T18:46:09Z</time>
      </trkpt>
      <trkpt lat="61.813517" lon="6.537403">
        <ele>5.442</ele>
        <time>2012-07-25T18:46:40Z</time>
      </trkpt>
      <trkpt lat="61.816402" lon="6.541023">
        <ele>4.948</ele>
        <time>2012-07-25T18:47:37Z</time>
      </trkpt>
      <trkpt lat="61.817556" lon="6.542765">
        <ele>8.843</ele>
        <time>2012-07-25T18:48:08Z</time>
      </trkpt>
      <trkpt lat="61.820706" lon="6.548384">
        <ele>5.941</ele>
        <time>2012-07-25T18:49:19Z</time>
      </trkpt>
      <trkpt lat="61.822569" lon="6.551256">
        <ele>7.456</ele>
        <time>2012-07-25T18:50:03Z</time>
      </trkpt>
      <trkpt lat="61.823556" lon="6.553387">
        <ele>8.878</ele>
        <time>2012-07-25T18:50:32Z</time>
      </trkpt>
      <trkpt lat="61.827271" lon="6.559947">
        <ele>8.333</ele>
        <time>2012-07-25T18:51:56Z</time>
      </trkpt>
      <trkpt lat="61.828786" lon="6.563051">
        <ele>7.426</ele>
        <time>2012-07-25T18:52:30Z</time>
      </trkpt>
      <trkpt lat="61.831654" lon="6.570317">
        <ele>7.807</ele>
        <time>2012-07-25T18:53:45Z</time>
      </trkpt>
      <trkpt lat="61.833479" lon="6.575516">
        <ele>5.440</ele>
        <time>2012-07-25T18:54:34Z</time>
      </trkpt>
      <trkpt lat="61.835316" lon="6.581776">
        <ele>4.514</ele>
        <time>2012-07-25T18:55:29Z</time>
      </trkpt>
      <trkpt lat="61.836910" lon="6.585580">
        <ele>5.496</ele>
        <time>2012-07-25T18:56:10Z</time>
      </trkpt>
      <trkpt lat="61.838682" lon="6.590724">
        <ele>4.552</ele>
        <time>2012-07-25T18:57:01Z</time>
      </trkpt>
      <trkpt lat="61.840437" lon="6.595167">
        <ele>5.457</ele>
        <time>2012-07-25T18:57:48Z</time>
      </trkpt>
      <trkpt lat="61.842115" lon="6.598891">
        <ele>4.935</ele>
        <time>2012-07-25T18:58:27Z</time>
      </trkpt>
      <trkpt lat="61.843760" lon="6.603057">
        <ele>6.430</ele>
        <time>2012-07-25T18:59:12Z</time>
      </trkpt>
      <trkpt lat="61.845610" lon="6.608727">
        <ele>5.414</ele>
        <time>2012-07-25T19:00:10Z</time>
      </trkpt>
      <trkpt lat="61.846399" lon="6.610344">
        <ele>5.954</ele>
        <time>2012-07-25T19:00:30Z</time>
      </trkpt>
      <trkpt lat="61.849402" lon="6.612833">
        <ele>5.409</ele>
        <time>2012-07-25T19:01:27Z</time>
      </trkpt>
      <trkpt lat="61.849559" lon="6.613003">
        <ele>6.907</ele>
        <time>2012-07-25T19:01:35Z</time>
      </trkpt>
      <trkpt lat="61.849382" lon="6.613362">
        <ele>4.034</ele>
        <time>2012-07-25T20:22:35Z</time>
      </trkpt>
      <trkpt lat="61.849452" lon="6.613086">
        <ele>9.878</ele>
        <time>2012-07-25T20:24:39Z</time>
      </trkpt>
      <trkpt lat="61.849453" lon="6.613216">
        <ele>-22.024</ele>
        <time>2012-07-26T08:45:42Z</time>
      </trkpt>
      <trkpt lat="61.849630" lon="6.613048">
        <ele>-21.504</ele>
        <time>2012-07-26T08:47:17Z</time>
      </trkpt>
      <trkpt lat="61.851809" lon="6.614803">
        <ele>-22.914</ele>
        <time>2012-07-26T08:48:19Z</time>
      </trkpt>
      <trkpt lat="61.852475" lon="6.614890">
        <ele>-22.407</ele>
        <time>2012-07-26T08:48:34Z</time>
      </trkpt>
      <trkpt lat="61.853514" lon="6.614210">
        <ele>-23.955</ele>
        <time>2012-07-26T08:48:56Z</time>
      </trkpt>
      <trkpt lat="61.855418" lon="6.611755">
        <ele>-22.019</ele>
        <time>2012-07-26T08:49:45Z</time>
      </trkpt>
      <trkpt lat="61.856885" lon="6.607737">
        <ele>-19.151</ele>
        <time>2012-07-26T08:50:39Z</time>
      </trkpt>
      <trkpt lat="61.857984" lon="6.602194">
        <ele>-19.657</ele>
        <time>2012-07-26T08:51:47Z</time>
      </trkpt>
      <trkpt lat="61.858838" lon="6.598737">
        <ele>-10.953</ele>
        <time>2012-07-26T08:58:18Z</time>
      </trkpt>
      <trkpt lat="61.860337" lon="6.593624">
        <ele>-7.544</ele>
        <time>2012-07-26T08:59:23Z</time>
      </trkpt>
      <trkpt lat="61.861278" lon="6.591115">
        <ele>-3.226</ele>
        <time>2012-07-26T09:00:07Z</time>
      </trkpt>
      <trkpt lat="61.861989" lon="6.588195">
        <ele>1.185</ele>
        <time>2012-07-26T09:00:53Z</time>
      </trkpt>
      <trkpt lat="61.862493" lon="6.586745">
        <ele>3.089</ele>
        <time>2012-07-26T09:01:19Z</time>
      </trkpt>
      <trkpt lat="61.863637" lon="6.581786">
        <ele>6.917</ele>
        <time>2012-07-26T09:02:26Z</time>
      </trkpt>
      <trkpt lat="61.864061" lon="6.580877">
        <ele>7.407</ele>
        <time>2012-07-26T09:02:44Z</time>
      </trkpt>
      <trkpt lat="61.864718" lon="6.580391">
        <ele>6.441</ele>
        <time>2012-07-26T09:02:58Z</time>
      </trkpt>
      <trkpt lat="61.865486" lon="6.580561">
        <ele>4.025</ele>
        <time>2012-07-26T09:03:10Z</time>
      </trkpt>
      <trkpt lat="61.866381" lon="6.581296">
        <ele>2.127</ele>
        <time>2012-07-26T09:03:23Z</time>
      </trkpt>
      <trkpt lat="61.867148" lon="6.582438">
        <ele>0.113</ele>
        <time>2012-07-26T09:03:36Z</time>
      </trkpt>
      <trkpt lat="61.868613" lon="6.587314">
        <ele>-5.619</ele>
        <time>2012-07-26T09:04:12Z</time>
      </trkpt>
      <trkpt lat="61.869316" lon="6.591468">
        <ele>-8.030</ele>
        <time>2012-07-26T09:04:39Z</time>
      </trkpt>
      <trkpt lat="61.869525" lon="6.595252">
        <ele>-4.282</ele>
        <time>2012-07-26T09:05:14Z</time>
      </trkpt>
      <trkpt lat="61.869353" lon="6.607758">
        <ele>-2.731</ele>
        <time>2012-07-26T09:07:11Z</time>
      </trkpt>
      <trkpt lat="61.869875" lon="6.615503">
        <ele>-4.761</ele>
        <time>2012-07-26T09:08:21Z</time>
      </trkpt>
      <trkpt lat="61.870323" lon="6.618760">
        <ele>-5.607</ele>
        <time>2012-07-26T09:08:47Z</time>
      </trkpt>
      <trkpt lat="61.871884" lon="6.624778">
        <ele>-8.007</ele>
        <time>2012-07-26T09:09:52Z</time>
      </trkpt>
      <trkpt lat="61.872708" lon="6.626395">
        <ele>-5.686</ele>
        <time>2012-07-26T09:10:13Z</time>
      </trkpt>
      <trkpt lat="61.873023" lon="6.628067">
        <ele>-7.170</ele>
        <time>2012-07-26T09:10:28Z</time>
      </trkpt>
      <trkpt lat="61.872798" lon="6.631675">
        <ele>-3.292</ele>
        <time>2012-07-26T09:12:07Z</time>
      </trkpt>
      <trkpt lat="61.873445" lon="6.636173">
        <ele>-2.748</ele>
        <time>2012-07-26T09:12:54Z</time>
      </trkpt>
      <trkpt lat="61.873627" lon="6.639970">
        <ele>-4.214</ele>
        <time>2012-07-26T09:13:27Z</time>
      </trkpt>
      <trkpt lat="61.873417" lon="6.648760">
        <ele>3.095</ele>
        <time>2012-07-26T09:14:55Z</time>
      </trkpt>
      <trkpt lat="61.872661" lon="6.653634">
        <ele>-1.337</ele>
        <time>2012-07-26T09:15:44Z</time>
      </trkpt>
      <trkpt lat="61.871965" lon="6.656272">
        <ele>-0.386</ele>
        <time>2012-07-26T09:16:13Z</time>
      </trkpt>
      <trkpt lat="61.870646" lon="6.662553">
        <ele>1.160</ele>
        <time>2012-07-26T09:17:34Z</time>
      </trkpt>
      <trkpt lat="61.870318" lon="6.665237">
        <ele>0.626</ele>
        <time>2012-07-26T09:18:05Z</time>
      </trkpt>
      <trkpt lat="61.870367" lon="6.667981">
        <ele>0.607</ele>
        <time>2012-07-26T09:18:38Z</time>
      </trkpt>
      <trkpt lat="61.870359" lon="6.667310">
        <ele>0.651</ele>
        <time>2012-07-26T09:18:53Z</time>
      </trkpt>
      <trkpt lat="61.870862" lon="6.670147">
        <ele>1.185</ele>
        <time>2012-07-26T09:19:31Z</time>
      </trkpt>
      <trkpt lat="61.871678" lon="6.671102">
        <ele>2.597</ele>
        <time>2012-07-26T09:19:59Z</time>
      </trkpt>
      <trkpt lat="61.871980" lon="6.673779">
        <ele>-1.863</ele>
        <time>2012-07-26T09:20:29Z</time>
      </trkpt>
      <trkpt lat="61.872455" lon="6.676392">
        <ele>1.199</ele>
        <time>2012-07-26T09:20:58Z</time>
      </trkpt>
      <trkpt lat="61.872633" lon="6.686956">
        <ele>2.580</ele>
        <time>2012-07-26T09:23:09Z</time>
      </trkpt>
      <trkpt lat="61.872413" lon="6.691485">
        <ele>5.412</ele>
        <time>2012-07-26T09:24:05Z</time>
      </trkpt>
      <trkpt lat="61.872015" lon="6.695630">
        <ele>4.982</ele>
        <time>2012-07-26T09:24:49Z</time>
      </trkpt>
      <trkpt lat="61.870881" lon="6.700150">
        <ele>1.643</ele>
        <time>2012-07-26T09:25:35Z</time>
      </trkpt>
      <trkpt lat="61.870729" lon="6.702908">
        <ele>1.117</ele>
        <time>2012-07-26T09:25:59Z</time>
      </trkpt>
      <trkpt lat="61.870366" lon="6.703798">
        <ele>0.607</ele>
        <time>2012-07-26T09:26:10Z</time>
      </trkpt>
      <trkpt lat="61.868830" lon="6.712953">
        <ele>-1.381</ele>
        <time>2012-07-26T09:28:25Z</time>
      </trkpt>
      <trkpt lat="61.868344" lon="6.717026">
        <ele>1.185</ele>
        <time>2012-07-26T09:29:17Z</time>
      </trkpt>
      <trkpt lat="61.867636" lon="6.719259">
        <ele>2.547</ele>
        <time>2012-07-26T09:30:46Z</time>
      </trkpt>
      <trkpt lat="61.866848" lon="6.725885">
        <ele>4.553</ele>
        <time>2012-07-26T09:31:59Z</time>
      </trkpt>
      <trkpt lat="61.866144" lon="6.729241">
        <ele>9.349</ele>
        <time>2012-07-26T09:32:50Z</time>
      </trkpt>
      <trkpt lat="61.865512" lon="6.736608">
        <ele>8.860</ele>
        <time>2012-07-26T09:34:18Z</time>
      </trkpt>
      <trkpt lat="61.865078" lon="6.739149">
        <ele>5.922</ele>
        <time>2012-07-26T09:34:39Z</time>
      </trkpt>
      <trkpt lat="61.865060" lon="6.740370">
        <ele>6.429</ele>
        <time>2012-07-26T09:34:50Z</time>
      </trkpt>
      <trkpt lat="61.864170" lon="6.747594">
        <ele>4.000</ele>
        <time>2012-07-26T09:36:01Z</time>
      </trkpt>
      <trkpt lat="61.864101" lon="6.751381">
        <ele>4.020</ele>
        <time>2012-07-26T09:36:57Z</time>
      </trkpt>
      <trkpt lat="61.863923" lon="6.752764">
        <ele>2.507</ele>
        <time>2012-07-26T09:37:13Z</time>
      </trkpt>
      <trkpt lat="61.863923" lon="6.756846">
        <ele>1.165</ele>
        <time>2012-07-26T09:37:48Z</time>
      </trkpt>
      <trkpt lat="61.863114" lon="6.758603">
        <ele>2.119</ele>
        <time>2012-07-26T09:39:49Z</time>
      </trkpt>
      <trkpt lat="61.861519" lon="6.763144">
        <ele>2.541</ele>
        <time>2012-07-26T09:42:00Z</time>
      </trkpt>
      <trkpt lat="61.860457" lon="6.764878">
        <ele>4.527</ele>
        <time>2012-07-26T09:42:34Z</time>
      </trkpt>
      <trkpt lat="61.859536" lon="6.767512">
        <ele>7.473</ele>
        <time>2012-07-26T09:43:15Z</time>
      </trkpt>
      <trkpt lat="61.858983" lon="6.770433">
        <ele>6.914</ele>
        <time>2012-07-26T09:43:56Z</time>
      </trkpt>
      <trkpt lat="61.858250" lon="6.771930">
        <ele>7.846</ele>
        <time>2012-07-26T09:44:20Z</time>
      </trkpt>
      <trkpt lat="61.856916" lon="6.775901">
        <ele>7.847</ele>
        <time>2012-07-26T09:45:12Z</time>
      </trkpt>
      <trkpt lat="61.856313" lon="6.778852">
        <ele>5.429</ele>
        <time>2012-07-26T09:45:41Z</time>
      </trkpt>
      <trkpt lat="61.855450" lon="6.781786">
        <ele>3.521</ele>
        <time>2012-07-26T09:46:09Z</time>
      </trkpt>
      <trkpt lat="61.854676" lon="6.785266">
        <ele>4.507</ele>
        <time>2012-07-26T09:46:43Z</time>
      </trkpt>
      <trkpt lat="61.852192" lon="6.791336">
        <ele>8.327</ele>
        <time>2012-07-26T09:48:05Z</time>
      </trkpt>
      <trkpt lat="61.851308" lon="6.793124">
        <ele>6.431</ele>
        <time>2012-07-26T09:48:30Z</time>
      </trkpt>
      <trkpt lat="61.849228" lon="6.796009">
        <ele>5.473</ele>
        <time>2012-07-26T09:49:19Z</time>
      </trkpt>
      <trkpt lat="61.847273" lon="6.797999">
        <ele>4.599</ele>
        <time>2012-07-26T09:50:01Z</time>
      </trkpt>
      <trkpt lat="61.843915" lon="6.799791">
        <ele>5.955</ele>
        <time>2012-07-26T09:51:19Z</time>
      </trkpt>
      <trkpt lat="61.843081" lon="6.799836">
        <ele>4.956</ele>
        <time>2012-07-26T09:51:40Z</time>
      </trkpt>
      <trkpt lat="61.841802" lon="6.800472">
        <ele>5.438</ele>
        <time>2012-07-26T09:52:07Z</time>
      </trkpt>
      <trkpt lat="61.837178" lon="6.800827">
        <ele>4.939</ele>
        <time>2012-07-26T09:53:38Z</time>
      </trkpt>
      <trkpt lat="61.836217" lon="6.800480">
        <ele>5.401</ele>
        <time>2012-07-26T09:53:56Z</time>
      </trkpt>
      <trkpt lat="61.835635" lon="6.800697">
        <ele>4.921</ele>
        <time>2012-07-26T09:54:10Z</time>
      </trkpt>
      <trkpt lat="61.835030" lon="6.801689">
        <ele>4.007</ele>
        <time>2012-07-26T09:54:28Z</time>
      </trkpt>
      <trkpt lat="61.834851" lon="6.802588">
        <ele>4.576</ele>
        <time>2012-07-26T09:54:42Z</time>
      </trkpt>
      <trkpt lat="61.834810" lon="6.804995">
        <ele>5.470</ele>
        <time>2012-07-26T09:55:37Z</time>
      </trkpt>
      <trkpt lat="61.835012" lon="6.805091">
        <ele>3.512</ele>
        <time>2012-07-26T09:55:48Z</time>
      </trkpt>
      <trkpt lat="61.835044" lon="6.805456">
        <ele>4.968</ele>
        <time>2012-07-26T09:56:31Z</time>
      </trkpt>
      <trkpt lat="61.834922" lon="6.805263">
        <ele>6.954</ele>
        <time>2012-07-26T10:59:12Z</time>
      </trkpt>
      <trkpt lat="61.835074" lon="6.805482">
        <ele>-0.365</ele>
        <time>2012-07-26T10:59:57Z</time>
      </trkpt>
      <trkpt lat="61.834955" lon="6.806209">
        <ele>-0.347</ele>
        <time>2012-07-26T11:00:23Z</time>
      </trkpt>
      <trkpt lat="61.835124" lon="6.806989">
        <ele>0.161</ele>
        <time>2012-07-26T11:00:36Z</time>
      </trkpt>
      <trkpt lat="61.834959" lon="6.807250">
        <ele>1.121</ele>
        <time>2012-07-26T11:00:44Z</time>
      </trkpt>
      <trkpt lat="61.834093" lon="6.806936">
        <ele>2.513</ele>
        <time>2012-07-26T11:01:13Z</time>
      </trkpt>
      <trkpt lat="61.833070" lon="6.806183">
        <ele>4.007</ele>
        <time>2012-07-26T11:01:38Z</time>
      </trkpt>
      <trkpt lat="61.831105" lon="6.807637">
        <ele>6.949</ele>
        <time>2012-07-26T11:02:28Z</time>
      </trkpt>
      <trkpt lat="61.828040" lon="6.808527">
        <ele>18.933</ele>
        <time>2012-07-26T11:05:13Z</time>
      </trkpt>
      <trkpt lat="61.827965" lon="6.808214">
        <ele>18.925</ele>
        <time>2012-07-26T11:05:21Z</time>
      </trkpt>
      <trkpt lat="61.827684" lon="6.808184">
        <ele>19.481</ele>
        <time>2012-07-26T11:10:07Z</time>
      </trkpt>
      <trkpt lat="61.827862" lon="6.808071">
        <ele>18.417</ele>
        <time>2012-07-26T11:10:32Z</time>
      </trkpt>
      <trkpt lat="61.827990" lon="6.808270">
        <ele>20.398</ele>
        <time>2012-07-26T11:10:41Z</time>
      </trkpt>
      <trkpt lat="61.827851" lon="6.808600">
        <ele>21.310</ele>
        <time>2012-07-26T11:11:02Z</time>
      </trkpt>
      <trkpt lat="61.824713" lon="6.809213">
        <ele>23.742</ele>
        <time>2012-07-26T11:12:11Z</time>
      </trkpt>
      <trkpt lat="61.822143" lon="6.810038">
        <ele>28.522</ele>
        <time>2012-07-26T11:13:26Z</time>
      </trkpt>
      <trkpt lat="61.820491" lon="6.810011">
        <ele>24.214</ele>
        <time>2012-07-26T11:13:49Z</time>
      </trkpt>
      <trkpt lat="61.817827" lon="6.810827">
        <ele>27.107</ele>
        <time>2012-07-26T11:14:43Z</time>
      </trkpt>
      <trkpt lat="61.817984" lon="6.810419">
        <ele>26.677</ele>
        <time>2012-07-26T11:16:12Z</time>
      </trkpt>
      <trkpt lat="61.817946" lon="6.810745">
        <ele>27.541</ele>
        <time>2012-07-26T11:16:46Z</time>
      </trkpt>
      <trkpt lat="61.815923" lon="6.811483">
        <ele>30.413</ele>
        <time>2012-07-26T11:17:39Z</time>
      </trkpt>
      <trkpt lat="61.814750" lon="6.814232">
        <ele>32.359</ele>
        <time>2012-07-26T11:21:29Z</time>
      </trkpt>
      <trkpt lat="61.813399" lon="6.815486">
        <ele>32.895</ele>
        <time>2012-07-26T11:22:02Z</time>
      </trkpt>
      <trkpt lat="61.812999" lon="6.816308">
        <ele>32.356</ele>
        <time>2012-07-26T11:22:12Z</time>
      </trkpt>
      <trkpt lat="61.812617" lon="6.819805">
        <ele>31.448</ele>
        <time>2012-07-26T11:22:41Z</time>
      </trkpt>
      <trkpt lat="61.812284" lon="6.820946">
        <ele>31.953</ele>
        <time>2012-07-26T11:22:52Z</time>
      </trkpt>
      <trkpt lat="61.811588" lon="6.821604">
        <ele>31.904</ele>
        <time>2012-07-26T11:23:05Z</time>
      </trkpt>
      <trkpt lat="61.811178" lon="6.821524">
        <ele>31.914</ele>
        <time>2012-07-26T11:23:12Z</time>
      </trkpt>
      <trkpt lat="61.810365" lon="6.820845">
        <ele>31.907</ele>
        <time>2012-07-26T11:23:27Z</time>
      </trkpt>
      <trkpt lat="61.809035" lon="6.820630">
        <ele>35.728</ele>
        <time>2012-07-26T11:23:57Z</time>
      </trkpt>
      <trkpt lat="61.808591" lon="6.820807">
        <ele>38.112</ele>
        <time>2012-07-26T11:24:13Z</time>
      </trkpt>
      <trkpt lat="61.805242" lon="6.824234">
        <ele>39.634</ele>
        <time>2012-07-26T11:25:51Z</time>
      </trkpt>
      <trkpt lat="61.803786" lon="6.825045">
        <ele>44.490</ele>
        <time>2012-07-26T11:26:25Z</time>
      </trkpt>
      <trkpt lat="61.802727" lon="6.825228">
        <ele>47.746</ele>
        <time>2012-07-26T11:26:56Z</time>
      </trkpt>
      <trkpt lat="61.801196" lon="6.826473">
        <ele>46.397</ele>
        <time>2012-07-26T11:27:31Z</time>
      </trkpt>
      <trkpt lat="61.800956" lon="6.826447">
        <ele>46.349</ele>
        <time>2012-07-26T11:29:04Z</time>
      </trkpt>
      <trkpt lat="61.800910" lon="6.826699">
        <ele>46.831</ele>
        <time>2012-07-26T11:29:25Z</time>
      </trkpt>
      <trkpt lat="61.799881" lon="6.827988">
        <ele>43.461</ele>
        <time>2012-07-26T11:29:52Z</time>
      </trkpt>
      <trkpt lat="61.799128" lon="6.828591">
        <ele>42.907</ele>
        <time>2012-07-26T11:30:06Z</time>
      </trkpt>
      <trkpt lat="61.798263" lon="6.828554">
        <ele>42.907</ele>
        <time>2012-07-26T11:30:21Z</time>
      </trkpt>
      <trkpt lat="61.796749" lon="6.827292">
        <ele>42.956</ele>
        <time>2012-07-26T11:31:51Z</time>
      </trkpt>
      <trkpt lat="61.794934" lon="6.827237">
        <ele>43.960</ele>
        <time>2012-07-26T11:32:35Z</time>
      </trkpt>
      <trkpt lat="61.793734" lon="6.827859">
        <ele>46.332</ele>
        <time>2012-07-26T11:33:08Z</time>
      </trkpt>
      <trkpt lat="61.792470" lon="6.828855">
        <ele>45.838</ele>
        <time>2012-07-26T11:33:38Z</time>
      </trkpt>
      <trkpt lat="61.791154" lon="6.829360">
        <ele>51.194</ele>
        <time>2012-07-26T11:34:16Z</time>
      </trkpt>
      <trkpt lat="61.790603" lon="6.829936">
        <ele>51.655</ele>
        <time>2012-07-26T11:34:32Z</time>
      </trkpt>
      <trkpt lat="61.789424" lon="6.832161">
        <ele>49.277</ele>
        <time>2012-07-26T11:35:02Z</time>
      </trkpt>
      <trkpt lat="61.788519" lon="6.833276">
        <ele>53.027</ele>
        <time>2012-07-26T11:35:30Z</time>
      </trkpt>
      <trkpt lat="61.787866" lon="6.835404">
        <ele>46.868</ele>
        <time>2012-07-26T11:35:49Z</time>
      </trkpt>
      <trkpt lat="61.787425" lon="6.835954">
        <ele>45.814</ele>
        <time>2012-07-26T11:35:56Z</time>
      </trkpt>
      <trkpt lat="61.786418" lon="6.836248">
        <ele>43.407</ele>
        <time>2012-07-26T11:36:11Z</time>
      </trkpt>
      <trkpt lat="61.784692" lon="6.835669">
        <ele>44.445</ele>
        <time>2012-07-26T11:36:39Z</time>
      </trkpt>
      <trkpt lat="61.783556" lon="6.835628">
        <ele>42.099</ele>
        <time>2012-07-26T11:36:58Z</time>
      </trkpt>
      <trkpt lat="61.782657" lon="6.834911">
        <ele>44.811</ele>
        <time>2012-07-26T11:37:18Z</time>
      </trkpt>
      <trkpt lat="61.781853" lon="6.834820">
        <ele>42.937</ele>
        <time>2012-07-26T11:37:33Z</time>
      </trkpt>
      <trkpt lat="61.781162" lon="6.834048">
        <ele>47.793</ele>
        <time>2012-07-26T11:37:55Z</time>
      </trkpt>
      <trkpt lat="61.780704" lon="6.833796">
        <ele>48.754</ele>
        <time>2012-07-26T11:38:10Z</time>
      </trkpt>
      <trkpt lat="61.780188" lon="6.834077">
        <ele>46.356</ele>
        <time>2012-07-26T11:38:21Z</time>
      </trkpt>
      <trkpt lat="61.778949" lon="6.835847">
        <ele>44.427</ele>
        <time>2012-07-26T11:41:40Z</time>
      </trkpt>
      <trkpt lat="61.778682" lon="6.835966">
        <ele>44.868</ele>
        <time>2012-07-26T11:41:47Z</time>
      </trkpt>
      <trkpt lat="61.777131" lon="6.835394">
        <ele>49.214</ele>
        <time>2012-07-26T11:42:32Z</time>
      </trkpt>
      <trkpt lat="61.776775" lon="6.835474">
        <ele>48.207</ele>
        <time>2012-07-26T11:42:40Z</time>
      </trkpt>
      <trkpt lat="61.775797" lon="6.836420">
        <ele>42.095</ele>
        <time>2012-07-26T11:42:55Z</time>
      </trkpt>
      <trkpt lat="61.775366" lon="6.836178">
        <ele>42.419</ele>
        <time>2012-07-26T11:43:02Z</time>
      </trkpt>
      <trkpt lat="61.774045" lon="6.834263">
        <ele>48.721</ele>
        <time>2012-07-26T11:43:44Z</time>
      </trkpt>
      <trkpt lat="61.773551" lon="6.833815">
        <ele>50.137</ele>
        <time>2012-07-26T11:44:01Z</time>
      </trkpt>
      <trkpt lat="61.772885" lon="6.833565">
        <ele>48.263</ele>
        <time>2012-07-26T11:44:15Z</time>
      </trkpt>
      <trkpt lat="61.771803" lon="6.833545">
        <ele>50.164</ele>
        <time>2012-07-26T11:44:37Z</time>
      </trkpt>
      <trkpt lat="61.770555" lon="6.834872">
        <ele>46.836</ele>
        <time>2012-07-26T11:45:04Z</time>
      </trkpt>
      <trkpt lat="61.770151" lon="6.835048">
        <ele>42.985</ele>
        <time>2012-07-26T11:45:09Z</time>
      </trkpt>
      <trkpt lat="61.768219" lon="6.834511">
        <ele>42.989</ele>
        <time>2012-07-26T11:45:40Z</time>
      </trkpt>
      <trkpt lat="61.767394" lon="6.833801">
        <ele>43.417</ele>
        <time>2012-07-26T11:45:57Z</time>
      </trkpt>
      <trkpt lat="61.766908" lon="6.833799">
        <ele>43.407</ele>
        <time>2012-07-26T11:46:29Z</time>
      </trkpt>
      <trkpt lat="61.766376" lon="6.832907">
        <ele>43.461</ele>
        <time>2012-07-26T11:46:48Z</time>
      </trkpt>
      <trkpt lat="61.763678" lon="6.830262">
        <ele>44.895</ele>
        <time>2012-07-26T11:47:51Z</time>
      </trkpt>
      <trkpt lat="61.762666" lon="6.829929">
        <ele>42.447</ele>
        <time>2012-07-26T11:48:09Z</time>
      </trkpt>
      <trkpt lat="61.761930" lon="6.829066">
        <ele>42.473</ele>
        <time>2012-07-26T11:48:24Z</time>
      </trkpt>
      <trkpt lat="61.760296" lon="6.826348">
        <ele>44.439</ele>
        <time>2012-07-26T11:49:08Z</time>
      </trkpt>
      <trkpt lat="61.758921" lon="6.823059">
        <ele>55.940</ele>
        <time>2012-07-26T11:50:37Z</time>
      </trkpt>
      <trkpt lat="61.757343" lon="6.816044">
        <ele>53.532</ele>
        <time>2012-07-26T11:52:06Z</time>
      </trkpt>
      <trkpt lat="61.757348" lon="6.814688">
        <ele>48.262</ele>
        <time>2012-07-26T11:52:14Z</time>
      </trkpt>
      <trkpt lat="61.758041" lon="6.812100">
        <ele>45.383</ele>
        <time>2012-07-26T11:52:31Z</time>
      </trkpt>
      <trkpt lat="61.758031" lon="6.811047">
        <ele>43.911</ele>
        <time>2012-07-26T11:52:39Z</time>
      </trkpt>
      <trkpt lat="61.757638" lon="6.810283">
        <ele>42.407</ele>
        <time>2012-07-26T11:52:47Z</time>
      </trkpt>
      <trkpt lat="61.756076" lon="6.808990">
        <ele>42.039</ele>
        <time>2012-07-26T11:53:16Z</time>
      </trkpt>
      <trkpt lat="61.755775" lon="6.808541">
        <ele>42.453</ele>
        <time>2012-07-26T11:53:23Z</time>
      </trkpt>
      <trkpt lat="61.755466" lon="6.807084">
        <ele>42.455</ele>
        <time>2012-07-26T11:53:38Z</time>
      </trkpt>
      <trkpt lat="61.755179" lon="6.801682">
        <ele>43.951</ele>
        <time>2012-07-26T11:54:47Z</time>
      </trkpt>
      <trkpt lat="61.755321" lon="6.799705">
        <ele>42.067</ele>
        <time>2012-07-26T11:56:42Z</time>
      </trkpt>
      <trkpt lat="61.755238" lon="6.799163">
        <ele>41.538</ele>
        <time>2012-07-26T11:56:48Z</time>
      </trkpt>
      <trkpt lat="61.754803" lon="6.798142">
        <ele>42.080</ele>
        <time>2012-07-26T11:57:02Z</time>
      </trkpt>
      <trkpt lat="61.752938" lon="6.796108">
        <ele>47.296</ele>
        <time>2012-07-26T11:58:03Z</time>
      </trkpt>
      <trkpt lat="61.752587" lon="6.795090">
        <ele>46.831</ele>
        <time>2012-07-26T11:58:21Z</time>
      </trkpt>
      <trkpt lat="61.752060" lon="6.794187">
        <ele>44.824</ele>
        <time>2012-07-26T11:58:35Z</time>
      </trkpt>
      <trkpt lat="61.751356" lon="6.793931">
        <ele>45.807</ele>
        <time>2012-07-26T11:58:50Z</time>
      </trkpt>
      <trkpt lat="61.750623" lon="6.792753">
        <ele>47.752</ele>
        <time>2012-07-26T12:01:18Z</time>
      </trkpt>
      <trkpt lat="61.750469" lon="6.791919">
        <ele>48.286</ele>
        <time>2012-07-26T12:17:43Z</time>
      </trkpt>
      <trkpt lat="61.749482" lon="6.790964">
        <ele>48.218</ele>
        <time>2012-07-26T12:18:15Z</time>
      </trkpt>
      <trkpt lat="61.748998" lon="6.789807">
        <ele>45.824</ele>
        <time>2012-07-26T12:18:28Z</time>
      </trkpt>
      <trkpt lat="61.748479" lon="6.789540">
        <ele>45.870</ele>
        <time>2012-07-26T12:18:39Z</time>
      </trkpt>
      <trkpt lat="61.747074" lon="6.790136">
        <ele>48.211</ele>
        <time>2012-07-26T12:19:11Z</time>
      </trkpt>
      <trkpt lat="61.745068" lon="6.789347">
        <ele>47.273</ele>
        <time>2012-07-26T12:19:53Z</time>
      </trkpt>
      <trkpt lat="61.743892" lon="6.789637">
        <ele>52.574</ele>
        <time>2012-07-26T12:20:36Z</time>
      </trkpt>
      <trkpt lat="61.742910" lon="6.790330">
        <ele>55.456</ele>
        <time>2012-07-26T12:21:13Z</time>
      </trkpt>
      <trkpt lat="61.742268" lon="6.790551">
        <ele>52.121</ele>
        <time>2012-07-26T12:21:27Z</time>
      </trkpt>
      <trkpt lat="61.740778" lon="6.790514">
        <ele>53.007</ele>
        <time>2012-07-26T12:21:56Z</time>
      </trkpt>
      <trkpt lat="61.738846" lon="6.789430">
        <ele>42.430</ele>
        <time>2012-07-26T12:22:39Z</time>
      </trkpt>
      <trkpt lat="61.738146" lon="6.788525">
        <ele>43.484</ele>
        <time>2012-07-26T12:22:50Z</time>
      </trkpt>
      <trkpt lat="61.737482" lon="6.786803">
        <ele>44.896</ele>
        <time>2012-07-26T12:23:15Z</time>
      </trkpt>
      <trkpt lat="61.736846" lon="6.786525">
        <ele>44.482</ele>
        <time>2012-07-26T12:25:05Z</time>
      </trkpt>
      <trkpt lat="61.735613" lon="6.787411">
        <ele>45.378</ele>
        <time>2012-07-26T12:25:34Z</time>
      </trkpt>
      <trkpt lat="61.734840" lon="6.787519">
        <ele>42.979</ele>
        <time>2012-07-26T12:25:49Z</time>
      </trkpt>
      <trkpt lat="61.731891" lon="6.789347">
        <ele>48.231</ele>
        <time>2012-07-26T12:27:02Z</time>
      </trkpt>
      <trkpt lat="61.730427" lon="6.789466">
        <ele>44.463</ele>
        <time>2012-07-26T12:27:38Z</time>
      </trkpt>
      <trkpt lat="61.728189" lon="6.790709">
        <ele>45.844</ele>
        <time>2012-07-26T12:28:23Z</time>
      </trkpt>
      <trkpt lat="61.726564" lon="6.791232">
        <ele>42.918</ele>
        <time>2012-07-26T12:28:56Z</time>
      </trkpt>
      <trkpt lat="61.725640" lon="6.792077">
        <ele>43.407</ele>
        <time>2012-07-26T12:29:20Z</time>
      </trkpt>
      <trkpt lat="61.724437" lon="6.792688">
        <ele>45.349</ele>
        <time>2012-07-26T12:29:51Z</time>
      </trkpt>
      <trkpt lat="61.723321" lon="6.794287">
        <ele>55.933</ele>
        <time>2012-07-26T12:31:04Z</time>
      </trkpt>
      <trkpt lat="61.722876" lon="6.794422">
        <ele>53.585</ele>
        <time>2012-07-26T12:31:16Z</time>
      </trkpt>
      <trkpt lat="61.720774" lon="6.794020">
        <ele>42.431</ele>
        <time>2012-07-26T12:31:45Z</time>
      </trkpt>
      <trkpt lat="61.716840" lon="6.795464">
        <ele>47.267</ele>
        <time>2012-07-26T12:33:16Z</time>
      </trkpt>
      <trkpt lat="61.709369" lon="6.797544">
        <ele>52.168</ele>
        <time>2012-07-26T12:36:19Z</time>
      </trkpt>
      <trkpt lat="61.709028" lon="6.797375">
        <ele>51.640</ele>
        <time>2012-07-26T12:36:31Z</time>
      </trkpt>
      <trkpt lat="61.709212" lon="6.797524">
        <ele>52.593</ele>
        <time>2012-07-26T12:36:44Z</time>
      </trkpt>
      <trkpt lat="61.706283" lon="6.799134">
        <ele>47.765</ele>
        <time>2012-07-26T12:38:12Z</time>
      </trkpt>
      <trkpt lat="61.702974" lon="6.803767">
        <ele>48.721</ele>
        <time>2012-07-26T12:40:38Z</time>
      </trkpt>
      <trkpt lat="61.701462" lon="6.804333">
        <ele>47.707</ele>
        <time>2012-07-26T12:41:13Z</time>
      </trkpt>
      <trkpt lat="61.696825" lon="6.808459">
        <ele>51.172</ele>
        <time>2012-07-26T12:43:11Z</time>
      </trkpt>
      <trkpt lat="61.695659" lon="6.809111">
        <ele>52.136</ele>
        <time>2012-07-26T12:43:40Z</time>
      </trkpt>
      <trkpt lat="61.693199" lon="6.809385">
        <ele>54.528</ele>
        <time>2012-07-26T12:44:41Z</time>
      </trkpt>
      <trkpt lat="61.691000" lon="6.810155">
        <ele>56.994</ele>
        <time>2012-07-26T12:45:38Z</time>
      </trkpt>
      <trkpt lat="61.689816" lon="6.809394">
        <ele>57.390</ele>
        <time>2012-07-26T12:46:14Z</time>
      </trkpt>
      <trkpt lat="61.688252" lon="6.809161">
        <ele>60.241</ele>
        <time>2012-07-26T12:46:59Z</time>
      </trkpt>
      <trkpt lat="61.686770" lon="6.808162">
        <ele>62.163</ele>
        <time>2012-07-26T12:47:46Z</time>
      </trkpt>
      <trkpt lat="61.685685" lon="6.807970">
        <ele>63.656</ele>
        <time>2012-07-26T12:48:17Z</time>
      </trkpt>
      <trkpt lat="61.684566" lon="6.808342">
        <ele>64.659</ele>
        <time>2012-07-26T12:48:48Z</time>
      </trkpt>
      <trkpt lat="61.683449" lon="6.809028">
        <ele>66.514</ele>
        <time>2012-07-26T12:49:18Z</time>
      </trkpt>
      <trkpt lat="61.681398" lon="6.810756">
        <ele>69.407</ele>
        <time>2012-07-26T12:51:08Z</time>
      </trkpt>
      <trkpt lat="61.678968" lon="6.812193">
        <ele>73.718</ele>
        <time>2012-07-26T12:53:09Z</time>
      </trkpt>
      <trkpt lat="61.677176" lon="6.813661">
        <ele>75.132</ele>
        <time>2012-07-26T12:54:02Z</time>
      </trkpt>
      <trkpt lat="61.672884" lon="6.814930">
        <ele>85.214</ele>
        <time>2012-07-26T12:56:20Z</time>
      </trkpt>
      <trkpt lat="61.672369" lon="6.814924">
        <ele>87.110</ele>
        <time>2012-07-26T12:56:49Z</time>
      </trkpt>
      <trkpt lat="61.671491" lon="6.814512">
        <ele>89.156</ele>
        <time>2012-07-26T12:58:57Z</time>
      </trkpt>
      <trkpt lat="61.670252" lon="6.815036">
        <ele>93.487</ele>
        <time>2012-07-26T12:59:42Z</time>
      </trkpt>
      <trkpt lat="61.669743" lon="6.815621">
        <ele>94.889</ele>
        <time>2012-07-26T13:00:10Z</time>
      </trkpt>
      <trkpt lat="61.669084" lon="6.816014">
        <ele>103.091</ele>
        <time>2012-07-26T13:00:57Z</time>
      </trkpt>
      <trkpt lat="61.668428" lon="6.815972">
        <ele>109.781</ele>
        <time>2012-07-26T13:01:43Z</time>
      </trkpt>
      <trkpt lat="61.667591" lon="6.816479">
        <ele>110.719</ele>
        <time>2012-07-26T13:02:21Z</time>
      </trkpt>
      <trkpt lat="61.666825" lon="6.816151">
        <ele>117.907</ele>
        <time>2012-07-26T13:03:05Z</time>
      </trkpt>
      <trkpt lat="61.665499" lon="6.816414">
        <ele>131.822</ele>
        <time>2012-07-26T13:04:30Z</time>
      </trkpt>
      <trkpt lat="61.665019" lon="6.816277">
        <ele>131.886</ele>
        <time>2012-07-26T13:04:59Z</time>
      </trkpt>
      <trkpt lat="61.664856" lon="6.817772">
        <ele>135.778</ele>
        <time>2012-07-26T13:06:36Z</time>
      </trkpt>
      <trkpt lat="61.664621" lon="6.818165">
        <ele>136.694</ele>
        <time>2012-07-26T13:09:07Z</time>
      </trkpt>
      <trkpt lat="61.664793" lon="6.817355">
        <ele>133.860</ele>
        <time>2012-07-26T13:09:39Z</time>
      </trkpt>
      <trkpt lat="61.664749" lon="6.818172">
        <ele>136.681</ele>
        <time>2012-07-26T13:32:36Z</time>
      </trkpt>
      <trkpt lat="61.664883" lon="6.817844">
        <ele>132.873</ele>
        <time>2012-07-26T13:33:03Z</time>
      </trkpt>
      <trkpt lat="61.665292" lon="6.818430">
        <ele>136.233</ele>
        <time>2012-07-26T13:33:40Z</time>
      </trkpt>
      <trkpt lat="61.665350" lon="6.818957">
        <ele>139.123</ele>
        <time>2012-07-26T13:34:02Z</time>
      </trkpt>
      <trkpt lat="61.664980" lon="6.819562">
        <ele>144.815</ele>
        <time>2012-07-26T13:34:45Z</time>
      </trkpt>
      <trkpt lat="61.663872" lon="6.820582">
        <ele>157.307</ele>
        <time>2012-07-26T13:36:28Z</time>
      </trkpt>
      <trkpt lat="61.663195" lon="6.822307">
        <ele>169.396</ele>
        <time>2012-07-26T13:37:58Z</time>
      </trkpt>
      <trkpt lat="61.663126" lon="6.822753">
        <ele>171.380</ele>
        <time>2012-07-26T13:38:14Z</time>
      </trkpt>
      <trkpt lat="61.663276" lon="6.823064">
        <ele>172.762</ele>
        <time>2012-07-26T13:39:01Z</time>
      </trkpt>
      <trkpt lat="61.663435" lon="6.822554">
        <ele>175.658</ele>
        <time>2012-07-26T13:39:35Z</time>
      </trkpt>
      <trkpt lat="61.663046" lon="6.822787">
        <ele>172.244</ele>
        <time>2012-07-26T13:45:25Z</time>
      </trkpt>
      <trkpt lat="61.663222" lon="6.822996">
        <ele>173.215</ele>
        <time>2012-07-26T13:46:50Z</time>
      </trkpt>
      <trkpt lat="61.664089" lon="6.826211">
        <ele>184.787</ele>
        <time>2012-07-26T13:50:39Z</time>
      </trkpt>
      <trkpt lat="61.664058" lon="6.827081">
        <ele>190.532</ele>
        <time>2012-07-26T13:51:22Z</time>
      </trkpt>
      <trkpt lat="61.664441" lon="6.828992">
        <ele>200.692</ele>
        <time>2012-07-26T13:52:58Z</time>
      </trkpt>
      <trkpt lat="61.664863" lon="6.829296">
        <ele>208.311</ele>
        <time>2012-07-26T13:53:51Z</time>
      </trkpt>
      <trkpt lat="61.665037" lon="6.829660">
        <ele>212.607</ele>
        <time>2012-07-26T13:54:15Z</time>
      </trkpt>
      <trkpt lat="61.665345" lon="6.832678">
        <ele>231.886</ele>
        <time>2012-07-26T13:59:11Z</time>
      </trkpt>
      <trkpt lat="61.665169" lon="6.833463">
        <ele>235.230</ele>
        <time>2012-07-26T13:59:43Z</time>
      </trkpt>
      <trkpt lat="61.664514" lon="6.833967">
        <ele>242.452</ele>
        <time>2012-07-26T14:01:39Z</time>
      </trkpt>
      <trkpt lat="61.664323" lon="6.833535">
        <ele>245.378</ele>
        <time>2012-07-26T14:02:12Z</time>
      </trkpt>
      <trkpt lat="61.664451" lon="6.833282">
        <ele>246.774</ele>
        <time>2012-07-26T14:02:36Z</time>
      </trkpt>
      <trkpt lat="61.664385" lon="6.833407">
        <ele>246.755</ele>
        <time>2012-07-26T14:02:55Z</time>
      </trkpt>
      <trkpt lat="61.664398" lon="6.832745">
        <ele>250.637</ele>
        <time>2012-07-26T14:06:16Z</time>
      </trkpt>
      <trkpt lat="61.664107" lon="6.832516">
        <ele>251.539</ele>
        <time>2012-07-26T14:07:20Z</time>
      </trkpt>
      <trkpt lat="61.664529" lon="6.832357">
        <ele>251.501</ele>
        <time>2012-07-26T14:09:00Z</time>
      </trkpt>
      <trkpt lat="61.664853" lon="6.833683">
        <ele>258.721</ele>
        <time>2012-07-26T14:10:06Z</time>
      </trkpt>
      <trkpt lat="61.664330" lon="6.834703">
        <ele>266.407</ele>
        <time>2012-07-26T14:11:16Z</time>
      </trkpt>
      <trkpt lat="61.664024" lon="6.834931">
        <ele>274.136</ele>
        <time>2012-07-26T14:11:50Z</time>
      </trkpt>
      <trkpt lat="61.663767" lon="6.834233">
        <ele>278.080</ele>
        <time>2012-07-26T14:12:25Z</time>
      </trkpt>
      <trkpt lat="61.663742" lon="6.833341">
        <ele>284.282</ele>
        <time>2012-07-26T14:13:11Z</time>
      </trkpt>
      <trkpt lat="61.663487" lon="6.833696">
        <ele>285.748</ele>
        <time>2012-07-26T14:13:33Z</time>
      </trkpt>
      <trkpt lat="61.663428" lon="6.835246">
        <ele>294.394</ele>
        <time>2012-07-26T14:14:46Z</time>
      </trkpt>
      <trkpt lat="61.663819" lon="6.836268">
        <ele>293.865</ele>
        <time>2012-07-26T14:16:04Z</time>
      </trkpt>
      <trkpt lat="61.664517" lon="6.836819">
        <ele>290.087</ele>
        <time>2012-07-26T14:17:14Z</time>
      </trkpt>
      <trkpt lat="61.665376" lon="6.838826">
        <ele>291.433</ele>
        <time>2012-07-26T14:19:32Z</time>
      </trkpt>
      <trkpt lat="61.665890" lon="6.840766">
        <ele>295.323</ele>
        <time>2012-07-26T14:20:48Z</time>
      </trkpt>
      <trkpt lat="61.665266" lon="6.841831">
        <ele>294.815</ele>
        <time>2012-07-26T14:21:35Z</time>
      </trkpt>
      <trkpt lat="61.665356" lon="6.842909">
        <ele>298.207</ele>
        <time>2012-07-26T14:22:30Z</time>
      </trkpt>
      <trkpt lat="61.665142" lon="6.843065">
        <ele>298.216</ele>
        <time>2012-07-26T14:23:40Z</time>
      </trkpt>
      <trkpt lat="61.665203" lon="6.842997">
        <ele>297.770</ele>
        <time>2012-07-26T14:24:57Z</time>
      </trkpt>
      <trkpt lat="61.665507" lon="6.843750">
        <ele>296.212</ele>
        <time>2012-07-26T14:25:32Z</time>
      </trkpt>
      <trkpt lat="61.665743" lon="6.847090">
        <ele>299.638</ele>
        <time>2012-07-26T14:27:40Z</time>
      </trkpt>
      <trkpt lat="61.665516" lon="6.847884">
        <ele>300.674</ele>
        <time>2012-07-26T14:28:25Z</time>
      </trkpt>
      <trkpt lat="61.665507" lon="6.848678">
        <ele>303.955</ele>
        <time>2012-07-26T14:28:57Z</time>
      </trkpt>
      <trkpt lat="61.665332" lon="6.849243">
        <ele>310.277</ele>
        <time>2012-07-26T14:29:33Z</time>
      </trkpt>
      <trkpt lat="61.665019" lon="6.849228">
        <ele>318.337</ele>
        <time>2012-07-26T14:30:20Z</time>
      </trkpt>
      <trkpt lat="61.664910" lon="6.849926">
        <ele>324.649</ele>
        <time>2012-07-26T14:32:10Z</time>
      </trkpt>
      <trkpt lat="61.665179" lon="6.851744">
        <ele>326.513</ele>
        <time>2012-07-26T14:34:24Z</time>
      </trkpt>
      <trkpt lat="61.664624" lon="6.853990">
        <ele>334.707</ele>
        <time>2012-07-26T14:36:16Z</time>
      </trkpt>
      <trkpt lat="61.664713" lon="6.855865">
        <ele>340.956</ele>
        <time>2012-07-26T14:37:35Z</time>
      </trkpt>
      <trkpt lat="61.664134" lon="6.859338">
        <ele>340.010</ele>
        <time>2012-07-26T14:40:21Z</time>
      </trkpt>
      <trkpt lat="61.664409" lon="6.861607">
        <ele>340.492</ele>
        <time>2012-07-26T15:37:48Z</time>
      </trkpt>
      <trkpt lat="61.664160" lon="6.859726">
        <ele>354.498</ele>
        <time>2012-07-26T15:39:29Z</time>
      </trkpt>
      <trkpt lat="61.664432" lon="6.857636">
        <ele>353.924</ele>
        <time>2012-07-26T15:42:13Z</time>
      </trkpt>
      <trkpt lat="61.664762" lon="6.856431">
        <ele>353.435</ele>
        <time>2012-07-26T15:43:16Z</time>
      </trkpt>
      <trkpt lat="61.664662" lon="6.853974">
        <ele>346.277</ele>
        <time>2012-07-26T15:44:49Z</time>
      </trkpt>
      <trkpt lat="61.665069" lon="6.851706">
        <ele>338.072</ele>
        <time>2012-07-26T15:46:17Z</time>
      </trkpt>
      <trkpt lat="61.665025" lon="6.849310">
        <ele>330.413</ele>
        <time>2012-07-26T15:48:20Z</time>
      </trkpt>
      <trkpt lat="61.665110" lon="6.849174">
        <ele>328.414</ele>
        <time>2012-07-26T15:48:29Z</time>
      </trkpt>
      <trkpt lat="61.665282" lon="6.849308">
        <ele>323.107</ele>
        <time>2012-07-26T15:49:03Z</time>
      </trkpt>
      <trkpt lat="61.665414" lon="6.849162">
        <ele>320.370</ele>
        <time>2012-07-26T15:49:15Z</time>
      </trkpt>
      <trkpt lat="61.665726" lon="6.847177">
        <ele>310.634</ele>
        <time>2012-07-26T15:50:51Z</time>
      </trkpt>
      <trkpt lat="61.665478" lon="6.842139">
        <ele>304.436</ele>
        <time>2012-07-26T15:54:45Z</time>
      </trkpt>
      <trkpt lat="61.665772" lon="6.840647">
        <ele>302.082</ele>
        <time>2012-07-26T15:55:51Z</time>
      </trkpt>
      <trkpt lat="61.665529" lon="6.838516">
        <ele>297.798</ele>
        <time>2012-07-26T15:57:49Z</time>
      </trkpt>
      <trkpt lat="61.665147" lon="6.837894">
        <ele>297.219</ele>
        <time>2012-07-26T15:58:20Z</time>
      </trkpt>
      <trkpt lat="61.664847" lon="6.836850">
        <ele>294.341</ele>
        <time>2012-07-26T15:59:10Z</time>
      </trkpt>
      <trkpt lat="61.664934" lon="6.836058">
        <ele>298.621</ele>
        <time>2012-07-26T16:00:09Z</time>
      </trkpt>
      <trkpt lat="61.664795" lon="6.835951">
        <ele>293.841</ele>
        <time>2012-07-26T16:00:32Z</time>
      </trkpt>
      <trkpt lat="61.665381" lon="6.835057">
        <ele>273.205</ele>
        <time>2012-07-26T16:02:38Z</time>
      </trkpt>
      <trkpt lat="61.665364" lon="6.834820">
        <ele>268.407</ele>
        <time>2012-07-26T16:03:05Z</time>
      </trkpt>
      <trkpt lat="61.665222" lon="6.834906">
        <ele>264.055</ele>
        <time>2012-07-26T16:03:30Z</time>
      </trkpt>
      <trkpt lat="61.665193" lon="6.834687">
        <ele>258.759</ele>
        <time>2012-07-26T16:03:53Z</time>
      </trkpt>
      <trkpt lat="61.665530" lon="6.833383">
        <ele>239.581</ele>
        <time>2012-07-26T16:05:44Z</time>
      </trkpt>
      <trkpt lat="61.665258" lon="6.830173">
        <ele>215.517</ele>
        <time>2012-07-26T16:08:42Z</time>
      </trkpt>
      <trkpt lat="61.664396" lon="6.827124">
        <ele>197.243</ele>
        <time>2012-07-26T16:10:54Z</time>
      </trkpt>
      <trkpt lat="61.664219" lon="6.825648">
        <ele>187.134</ele>
        <time>2012-07-26T16:12:05Z</time>
      </trkpt>
      <trkpt lat="61.663278" lon="6.822887">
        <ele>168.466</ele>
        <time>2012-07-26T16:14:31Z</time>
      </trkpt>
      <trkpt lat="61.663126" lon="6.822835">
        <ele>168.936</ele>
        <time>2012-07-26T16:15:21Z</time>
      </trkpt>
      <trkpt lat="61.663240" lon="6.822984">
        <ele>167.917</ele>
        <time>2012-07-26T16:16:36Z</time>
      </trkpt>
      <trkpt lat="61.663431" lon="6.822686">
        <ele>166.918</ele>
        <time>2012-07-26T16:17:56Z</time>
      </trkpt>
      <trkpt lat="61.663448" lon="6.822398">
        <ele>166.007</ele>
        <time>2012-07-26T16:19:49Z</time>
      </trkpt>
      <trkpt lat="61.663853" lon="6.821869">
        <ele>160.766</ele>
        <time>2012-07-26T16:20:25Z</time>
      </trkpt>
      <trkpt lat="61.664364" lon="6.820721">
        <ele>151.560</ele>
        <time>2012-07-26T16:20:34Z</time>
      </trkpt>
      <trkpt lat="61.665717" lon="6.819213">
        <ele>135.772</ele>
        <time>2012-07-26T16:20:51Z</time>
      </trkpt>
      <trkpt lat="61.665670" lon="6.818832">
        <ele>133.348</ele>
        <time>2012-07-26T16:20:54Z</time>
      </trkpt>
      <trkpt lat="61.665040" lon="6.817859">
        <ele>128.574</ele>
        <time>2012-07-26T16:21:30Z</time>
      </trkpt>
      <trkpt lat="61.664869" lon="6.818150">
        <ele>128.045</ele>
        <time>2012-07-26T16:22:02Z</time>
      </trkpt>
      <trkpt lat="61.665020" lon="6.817981">
        <ele>128.557</ele>
        <time>2012-07-26T16:22:14Z</time>
      </trkpt>
      <trkpt lat="61.665217" lon="6.817013">
        <ele>127.033</ele>
        <time>2012-07-26T16:23:11Z</time>
      </trkpt>
      <trkpt lat="61.665152" lon="6.816512">
        <ele>128.023</ele>
        <time>2012-07-26T16:24:45Z</time>
      </trkpt>
      <trkpt lat="61.664887" lon="6.816439">
        <ele>131.415</ele>
        <time>2012-07-26T16:27:20Z</time>
      </trkpt>
      <trkpt lat="61.665148" lon="6.816759">
        <ele>129.407</ele>
        <time>2012-07-26T16:27:33Z</time>
      </trkpt>
      <trkpt lat="61.664947" lon="6.818217">
        <ele>133.336</ele>
        <time>2012-07-26T16:28:17Z</time>
      </trkpt>
      <trkpt lat="61.664781" lon="6.818086">
        <ele>142.470</ele>
        <time>2012-07-26T16:40:00Z</time>
      </trkpt>
      <trkpt lat="61.665203" lon="6.816394">
        <ele>140.032</ele>
        <time>2012-07-26T16:41:26Z</time>
      </trkpt>
      <trkpt lat="61.666931" lon="6.816275">
        <ele>129.028</ele>
        <time>2012-07-26T16:41:49Z</time>
      </trkpt>
      <trkpt lat="61.667623" lon="6.816623">
        <ele>122.234</ele>
        <time>2012-07-26T16:41:57Z</time>
      </trkpt>
      <trkpt lat="61.668818" lon="6.816039">
        <ele>117.415</ele>
        <time>2012-07-26T16:42:09Z</time>
      </trkpt>
      <trkpt lat="61.669179" lon="6.816097">
        <ele>114.587</ele>
        <time>2012-07-26T16:42:13Z</time>
      </trkpt>
      <trkpt lat="61.670654" lon="6.814909">
        <ele>102.059</ele>
        <time>2012-07-26T16:42:27Z</time>
      </trkpt>
      <trkpt lat="61.671960" lon="6.814616">
        <ele>98.703</ele>
        <time>2012-07-26T16:42:38Z</time>
      </trkpt>
      <trkpt lat="61.673186" lon="6.814927">
        <ele>96.323</ele>
        <time>2012-07-26T16:42:48Z</time>
      </trkpt>
      <trkpt lat="61.676179" lon="6.814067">
        <ele>90.007</ele>
        <time>2012-07-26T16:43:10Z</time>
      </trkpt>
      <trkpt lat="61.677803" lon="6.813251">
        <ele>87.128</ele>
        <time>2012-07-26T16:43:22Z</time>
      </trkpt>
      <trkpt lat="61.679682" lon="6.811827">
        <ele>84.762</ele>
        <time>2012-07-26T16:43:36Z</time>
      </trkpt>
      <trkpt lat="61.681825" lon="6.810523">
        <ele>81.414</ele>
        <time>2012-07-26T16:43:51Z</time>
      </trkpt>
      <trkpt lat="61.683033" lon="6.809510">
        <ele>79.570</ele>
        <time>2012-07-26T16:44:00Z</time>
      </trkpt>
      <trkpt lat="61.685001" lon="6.808287">
        <ele>77.536</ele>
        <time>2012-07-26T16:44:14Z</time>
      </trkpt>
      <trkpt lat="61.686654" lon="6.808160">
        <ele>75.117</ele>
        <time>2012-07-26T16:44:25Z</time>
      </trkpt>
      <trkpt lat="61.688202" lon="6.809190">
        <ele>73.269</ele>
        <time>2012-07-26T16:44:36Z</time>
      </trkpt>
      <trkpt lat="61.689478" lon="6.809266">
        <ele>70.811</ele>
        <time>2012-07-26T16:44:45Z</time>
      </trkpt>
      <trkpt lat="61.690595" lon="6.809972">
        <ele>69.421</ele>
        <time>2012-07-26T16:44:53Z</time>
      </trkpt>
      <trkpt lat="61.691757" lon="6.810115">
        <ele>68.903</ele>
        <time>2012-07-26T16:45:01Z</time>
      </trkpt>
      <trkpt lat="61.693884" lon="6.809347">
        <ele>67.007</ele>
        <time>2012-07-26T16:45:15Z</time>
      </trkpt>
      <trkpt lat="61.696078" lon="6.809017">
        <ele>65.564</ele>
        <time>2012-07-26T16:45:29Z</time>
      </trkpt>
      <trkpt lat="61.697736" lon="6.807723">
        <ele>64.138</ele>
        <time>2012-07-26T16:45:40Z</time>
      </trkpt>
      <trkpt lat="61.700754" lon="6.804920">
        <ele>61.770</ele>
        <time>2012-07-26T16:46:01Z</time>
      </trkpt>
      <trkpt lat="61.703424" lon="6.803427">
        <ele>62.126</ele>
        <time>2012-07-26T16:46:20Z</time>
      </trkpt>
      <trkpt lat="61.706291" lon="6.799213">
        <ele>60.782</ele>
        <time>2012-07-26T16:46:45Z</time>
      </trkpt>
      <trkpt lat="61.707097" lon="6.798578">
        <ele>59.743</ele>
        <time>2012-07-26T16:46:52Z</time>
      </trkpt>
      <trkpt lat="61.707835" lon="6.797442">
        <ele>62.615</ele>
        <time>2012-07-26T16:47:06Z</time>
      </trkpt>
      <trkpt lat="61.716667" lon="6.795469">
        <ele>62.132</ele>
        <time>2012-07-26T16:48:00Z</time>
      </trkpt>
      <trkpt lat="61.721099" lon="6.794022">
        <ele>57.892</ele>
        <time>2012-07-26T16:48:30Z</time>
      </trkpt>
      <trkpt lat="61.723243" lon="6.794478">
        <ele>66.511</ele>
        <time>2012-07-26T16:48:48Z</time>
      </trkpt>
      <trkpt lat="61.723613" lon="6.794186">
        <ele>67.407</ele>
        <time>2012-07-26T16:48:52Z</time>
      </trkpt>
      <trkpt lat="61.724261" lon="6.792868">
        <ele>61.216</ele>
        <time>2012-07-26T16:49:01Z</time>
      </trkpt>
      <trkpt lat="61.726308" lon="6.791481">
        <ele>56.980</ele>
        <time>2012-07-26T16:49:17Z</time>
      </trkpt>
      <trkpt lat="61.730286" lon="6.789533">
        <ele>56.992</ele>
        <time>2012-07-26T16:49:48Z</time>
      </trkpt>
      <trkpt lat="61.731741" lon="6.789240">
        <ele>60.218</ele>
        <time>2012-07-26T16:50:03Z</time>
      </trkpt>
      <trkpt lat="61.735217" lon="6.787460">
        <ele>55.424</ele>
        <time>2012-07-26T16:50:33Z</time>
      </trkpt>
      <trkpt lat="61.735782" lon="6.787417">
        <ele>56.985</ele>
        <time>2012-07-26T16:50:39Z</time>
      </trkpt>
      <trkpt lat="61.736324" lon="6.786947">
        <ele>57.377</ele>
        <time>2012-07-26T16:50:46Z</time>
      </trkpt>
      <trkpt lat="61.737159" lon="6.786648">
        <ele>55.935</ele>
        <time>2012-07-26T16:50:54Z</time>
      </trkpt>
      <trkpt lat="61.737671" lon="6.787125">
        <ele>55.986</ele>
        <time>2012-07-26T16:51:00Z</time>
      </trkpt>
      <trkpt lat="61.738231" lon="6.788801">
        <ele>55.914</ele>
        <time>2012-07-26T16:51:11Z</time>
      </trkpt>
      <trkpt lat="61.739074" lon="6.789658">
        <ele>57.307</ele>
        <time>2012-07-26T16:51:19Z</time>
      </trkpt>
      <trkpt lat="61.740113" lon="6.790296">
        <ele>64.116</ele>
        <time>2012-07-26T16:51:28Z</time>
      </trkpt>
      <trkpt lat="61.741207" lon="6.790570">
        <ele>64.660</ele>
        <time>2012-07-26T16:51:40Z</time>
      </trkpt>
      <trkpt lat="61.742592" lon="6.790498">
        <ele>66.582</ele>
        <time>2012-07-26T16:51:50Z</time>
      </trkpt>
      <trkpt lat="61.744607" lon="6.789362">
        <ele>61.268</ele>
        <time>2012-07-26T16:52:07Z</time>
      </trkpt>
      <trkpt lat="61.745558" lon="6.789453">
        <ele>58.834</ele>
        <time>2012-07-26T16:52:18Z</time>
      </trkpt>
      <trkpt lat="61.746957" lon="6.790146">
        <ele>60.725</ele>
        <time>2012-07-26T16:52:29Z</time>
      </trkpt>
      <trkpt lat="61.748496" lon="6.789544">
        <ele>59.357</ele>
        <time>2012-07-26T16:52:40Z</time>
      </trkpt>
      <trkpt lat="61.748895" lon="6.789591">
        <ele>59.348</ele>
        <time>2012-07-26T16:52:43Z</time>
      </trkpt>
      <trkpt lat="61.749550" lon="6.790939">
        <ele>59.761</ele>
        <time>2012-07-26T16:52:52Z</time>
      </trkpt>
      <trkpt lat="61.750478" lon="6.791805">
        <ele>60.717</ele>
        <time>2012-07-26T16:53:02Z</time>
      </trkpt>
      <trkpt lat="61.751218" lon="6.793711">
        <ele>60.207</ele>
        <time>2012-07-26T16:53:13Z</time>
      </trkpt>
      <trkpt lat="61.752233" lon="6.794243">
        <ele>58.857</ele>
        <time>2012-07-26T16:53:23Z</time>
      </trkpt>
      <trkpt lat="61.753222" lon="6.796504">
        <ele>60.231</ele>
        <time>2012-07-26T16:53:35Z</time>
      </trkpt>
      <trkpt lat="61.754999" lon="6.798281">
        <ele>55.973</ele>
        <time>2012-07-26T16:53:49Z</time>
      </trkpt>
      <trkpt lat="61.755349" lon="6.799074">
        <ele>55.969</ele>
        <time>2012-07-26T16:53:53Z</time>
      </trkpt>
      <trkpt lat="61.755451" lon="6.799796">
        <ele>55.415</ele>
        <time>2012-07-26T16:53:56Z</time>
      </trkpt>
      <trkpt lat="61.755332" lon="6.805544">
        <ele>57.876</ele>
        <time>2012-07-26T16:54:16Z</time>
      </trkpt>
      <trkpt lat="61.755699" lon="6.808397">
        <ele>56.478</ele>
        <time>2012-07-26T16:54:26Z</time>
      </trkpt>
      <trkpt lat="61.756226" lon="6.809181">
        <ele>55.936</ele>
        <time>2012-07-26T16:54:31Z</time>
      </trkpt>
      <trkpt lat="61.757733" lon="6.810401">
        <ele>56.417</ele>
        <time>2012-07-26T16:54:43Z</time>
      </trkpt>
      <trkpt lat="61.758209" lon="6.811497">
        <ele>56.418</ele>
        <time>2012-07-26T16:54:50Z</time>
      </trkpt>
      <trkpt lat="61.758197" lon="6.812268">
        <ele>57.307</ele>
        <time>2012-07-26T16:54:56Z</time>
      </trkpt>
      <trkpt lat="61.757472" lon="6.814673">
        <ele>59.796</ele>
        <time>2012-07-26T16:55:13Z</time>
      </trkpt>
      <trkpt lat="61.757148" lon="6.816441">
        <ele>67.030</ele>
        <time>2012-07-26T16:55:24Z</time>
      </trkpt>
      <trkpt lat="61.757880" lon="6.818204">
        <ele>68.932</ele>
        <time>2012-07-26T16:55:33Z</time>
      </trkpt>
      <trkpt lat="61.759072" lon="6.823464">
        <ele>68.448</ele>
        <time>2012-07-26T16:55:59Z</time>
      </trkpt>
      <trkpt lat="61.760386" lon="6.826274">
        <ele>58.824</ele>
        <time>2012-07-26T16:56:13Z</time>
      </trkpt>
      <trkpt lat="61.762372" lon="6.829547">
        <ele>55.925</ele>
        <time>2012-07-26T16:56:33Z</time>
      </trkpt>
      <trkpt lat="61.762825" lon="6.829963">
        <ele>55.997</ele>
        <time>2012-07-26T16:56:37Z</time>
      </trkpt>
      <trkpt lat="61.763755" lon="6.830248">
        <ele>57.834</ele>
        <time>2012-07-26T16:56:44Z</time>
      </trkpt>
      <trkpt lat="61.766142" lon="6.832523">
        <ele>55.455</ele>
        <time>2012-07-26T16:57:05Z</time>
      </trkpt>
      <trkpt lat="61.766995" lon="6.833802">
        <ele>54.010</ele>
        <time>2012-07-26T16:57:15Z</time>
      </trkpt>
      <trkpt lat="61.767616" lon="6.833988">
        <ele>54.907</ele>
        <time>2012-07-26T16:57:22Z</time>
      </trkpt>
      <trkpt lat="61.768395" lon="6.834580">
        <ele>55.946</ele>
        <time>2012-07-26T16:57:29Z</time>
      </trkpt>
      <trkpt lat="61.770310" lon="6.835009">
        <ele>56.970</ele>
        <time>2012-07-26T16:57:43Z</time>
      </trkpt>
      <trkpt lat="61.771860" lon="6.833542">
        <ele>62.122</ele>
        <time>2012-07-26T16:57:58Z</time>
      </trkpt>
      <trkpt lat="61.772357" lon="6.833445">
        <ele>61.768</ele>
        <time>2012-07-26T16:58:02Z</time>
      </trkpt>
      <trkpt lat="61.773680" lon="6.833861">
        <ele>62.134</ele>
        <time>2012-07-26T16:58:12Z</time>
      </trkpt>
      <trkpt lat="61.774673" lon="6.834980">
        <ele>58.815</ele>
        <time>2012-07-26T16:58:21Z</time>
      </trkpt>
      <trkpt lat="61.775431" lon="6.836178">
        <ele>55.447</ele>
        <time>2012-07-26T16:58:28Z</time>
      </trkpt>
      <trkpt lat="61.775793" lon="6.836419">
        <ele>54.972</ele>
        <time>2012-07-26T16:58:31Z</time>
      </trkpt>
      <trkpt lat="61.777087" lon="6.835436">
        <ele>59.313</ele>
        <time>2012-07-26T16:58:43Z</time>
      </trkpt>
      <trkpt lat="61.778506" lon="6.835952">
        <ele>58.314</ele>
        <time>2012-07-26T16:58:55Z</time>
      </trkpt>
      <trkpt lat="61.778895" lon="6.835904">
        <ele>56.907</ele>
        <time>2012-07-26T16:58:58Z</time>
      </trkpt>
      <trkpt lat="61.780559" lon="6.833842">
        <ele>59.350</ele>
        <time>2012-07-26T16:59:13Z</time>
      </trkpt>
      <trkpt lat="61.781201" lon="6.834008">
        <ele>60.274</ele>
        <time>2012-07-26T16:59:19Z</time>
      </trkpt>
      <trkpt lat="61.781954" lon="6.834862">
        <ele>55.936</ele>
        <time>2012-07-26T16:59:26Z</time>
      </trkpt>
      <trkpt lat="61.782699" lon="6.834914">
        <ele>56.982</ele>
        <time>2012-07-26T16:59:32Z</time>
      </trkpt>
      <trkpt lat="61.783724" lon="6.835684">
        <ele>54.928</ele>
        <time>2012-07-26T16:59:41Z</time>
      </trkpt>
      <trkpt lat="61.784347" lon="6.835654">
        <ele>55.949</ele>
        <time>2012-07-26T16:59:46Z</time>
      </trkpt>
      <trkpt lat="61.786277" lon="6.836288">
        <ele>56.471</ele>
        <time>2012-07-26T17:00:01Z</time>
      </trkpt>
      <trkpt lat="61.787607" lon="6.835910">
        <ele>59.365</ele>
        <time>2012-07-26T17:00:11Z</time>
      </trkpt>
      <trkpt lat="61.788029" lon="6.835227">
        <ele>60.768</ele>
        <time>2012-07-26T17:00:15Z</time>
      </trkpt>
      <trkpt lat="61.788557" lon="6.833384">
        <ele>64.614</ele>
        <time>2012-07-26T17:00:23Z</time>
      </trkpt>
      <trkpt lat="61.789710" lon="6.831957">
        <ele>63.107</ele>
        <time>2012-07-26T17:00:32Z</time>
      </trkpt>
      <trkpt lat="61.790425" lon="6.830268">
        <ele>64.629</ele>
        <time>2012-07-26T17:00:39Z</time>
      </trkpt>
      <trkpt lat="61.791167" lon="6.829358">
        <ele>64.113</ele>
        <time>2012-07-26T17:00:45Z</time>
      </trkpt>
      <trkpt lat="61.792460" lon="6.828868">
        <ele>60.275</ele>
        <time>2012-07-26T17:00:54Z</time>
      </trkpt>
      <trkpt lat="61.794238" lon="6.827623">
        <ele>60.271</ele>
        <time>2012-07-26T17:01:06Z</time>
      </trkpt>
      <trkpt lat="61.795123" lon="6.827273">
        <ele>57.877</ele>
        <time>2012-07-26T17:01:12Z</time>
      </trkpt>
      <trkpt lat="61.796647" lon="6.827224">
        <ele>56.478</ele>
        <time>2012-07-26T17:01:23Z</time>
      </trkpt>
      <trkpt lat="61.798640" lon="6.828709">
        <ele>57.340</ele>
        <time>2012-07-26T17:01:37Z</time>
      </trkpt>
      <trkpt lat="61.799118" lon="6.828650">
        <ele>57.817</ele>
        <time>2012-07-26T17:01:40Z</time>
      </trkpt>
      <trkpt lat="61.799737" lon="6.828220">
        <ele>58.387</ele>
        <time>2012-07-26T17:01:44Z</time>
      </trkpt>
      <trkpt lat="61.801390" lon="6.826376">
        <ele>61.715</ele>
        <time>2012-07-26T17:01:56Z</time>
      </trkpt>
      <trkpt lat="61.802544" lon="6.825367">
        <ele>62.107</ele>
        <time>2012-07-26T17:02:04Z</time>
      </trkpt>
      <trkpt lat="61.804562" lon="6.824720">
        <ele>58.864</ele>
        <time>2012-07-26T17:02:17Z</time>
      </trkpt>
      <trkpt lat="61.808882" lon="6.820689">
        <ele>52.598</ele>
        <time>2012-07-26T17:02:46Z</time>
      </trkpt>
      <trkpt lat="61.810584" lon="6.820908">
        <ele>48.250</ele>
        <time>2012-07-26T17:02:57Z</time>
      </trkpt>
      <trkpt lat="61.811413" lon="6.821595">
        <ele>47.736</ele>
        <time>2012-07-26T17:03:03Z</time>
      </trkpt>
      <trkpt lat="61.811962" lon="6.821388">
        <ele>46.852</ele>
        <time>2012-07-26T17:03:07Z</time>
      </trkpt>
      <trkpt lat="61.812445" lon="6.820625">
        <ele>47.233</ele>
        <time>2012-07-26T17:03:11Z</time>
      </trkpt>
      <trkpt lat="61.812706" lon="6.819796">
        <ele>47.735</ele>
        <time>2012-07-26T17:03:14Z</time>
      </trkpt>
      <trkpt lat="61.813165" lon="6.816077">
        <ele>47.797</ele>
        <time>2012-07-26T17:03:27Z</time>
      </trkpt>
      <trkpt lat="61.813554" lon="6.815405">
        <ele>48.223</ele>
        <time>2012-07-26T17:03:31Z</time>
      </trkpt>
      <trkpt lat="61.815029" lon="6.813949">
        <ele>48.725</ele>
        <time>2012-07-26T17:03:43Z</time>
      </trkpt>
      <trkpt lat="61.815741" lon="6.811871">
        <ele>47.207</ele>
        <time>2012-07-26T17:03:52Z</time>
      </trkpt>
      <trkpt lat="61.816032" lon="6.811480">
        <ele>46.882</ele>
        <time>2012-07-26T17:03:55Z</time>
      </trkpt>
      <trkpt lat="61.821045" lon="6.810068">
        <ele>43.996</ele>
        <time>2012-07-26T17:04:38Z</time>
      </trkpt>
      <trkpt lat="61.821800" lon="6.810157">
        <ele>45.328</ele>
        <time>2012-07-26T17:04:43Z</time>
      </trkpt>
      <trkpt lat="61.831443" lon="6.807570">
        <ele>29.524</ele>
        <time>2012-07-26T17:05:48Z</time>
      </trkpt>
      <trkpt lat="61.832673" lon="6.806502">
        <ele>26.690</ele>
        <time>2012-07-26T17:05:58Z</time>
      </trkpt>
      <trkpt lat="61.833218" lon="6.806296">
        <ele>25.621</ele>
        <time>2012-07-26T17:06:03Z</time>
      </trkpt>
      <trkpt lat="61.834136" lon="6.807051">
        <ele>24.233</ele>
        <time>2012-07-26T17:06:12Z</time>
      </trkpt>
      <trkpt lat="61.835292" lon="6.807366">
        <ele>19.499</ele>
        <time>2012-07-26T17:06:32Z</time>
      </trkpt>
      <trkpt lat="61.835699" lon="6.807965">
        <ele>20.307</ele>
        <time>2012-07-26T17:06:48Z</time>
      </trkpt>
      <trkpt lat="61.835729" lon="6.807661">
        <ele>18.927</ele>
        <time>2012-07-26T17:06:53Z</time>
      </trkpt>
      <trkpt lat="61.835563" lon="6.807335">
        <ele>15.507</ele>
        <time>2012-07-26T17:34:43Z</time>
      </trkpt>
      <trkpt lat="61.835728" lon="6.808107">
        <ele>14.132</ele>
        <time>2012-07-26T18:04:50Z</time>
      </trkpt>
      <trkpt lat="61.836259" lon="6.809056">
        <ele>13.676</ele>
        <time>2012-07-26T18:05:16Z</time>
      </trkpt>
      <trkpt lat="61.836927" lon="6.809652">
        <ele>12.678</ele>
        <time>2012-07-26T18:05:40Z</time>
      </trkpt>
      <trkpt lat="61.837083" lon="6.810046">
        <ele>13.664</ele>
        <time>2012-07-26T18:05:48Z</time>
      </trkpt>
      <trkpt lat="61.838406" lon="6.811053">
        <ele>12.640</ele>
        <time>2012-07-26T18:06:23Z</time>
      </trkpt>
      <trkpt lat="61.839274" lon="6.811212">
        <ele>11.211</ele>
        <time>2012-07-26T18:06:42Z</time>
      </trkpt>
      <trkpt lat="61.841011" lon="6.810715">
        <ele>11.273</ele>
        <time>2012-07-26T18:07:18Z</time>
      </trkpt>
      <trkpt lat="61.842045" lon="6.810770">
        <ele>11.754</ele>
        <time>2012-07-26T18:07:39Z</time>
      </trkpt>
      <trkpt lat="61.844785" lon="6.812726">
        <ele>11.256</ele>
        <time>2012-07-26T18:10:17Z</time>
      </trkpt>
      <trkpt lat="61.848413" lon="6.813888">
        <ele>11.211</ele>
        <time>2012-07-26T18:11:29Z</time>
      </trkpt>
      <trkpt lat="61.853350" lon="6.815856">
        <ele>13.107</ele>
        <time>2012-07-26T18:13:26Z</time>
      </trkpt>
      <trkpt lat="61.857087" lon="6.815391">
        <ele>11.228</ele>
        <time>2012-07-26T18:14:46Z</time>
      </trkpt>
      <trkpt lat="61.858779" lon="6.814784">
        <ele>13.682</ele>
        <time>2012-07-26T18:15:34Z</time>
      </trkpt>
      <trkpt lat="61.859314" lon="6.814845">
        <ele>14.624</ele>
        <time>2012-07-26T18:15:51Z</time>
      </trkpt>
      <trkpt lat="61.859728" lon="6.815169">
        <ele>14.180</ele>
        <time>2012-07-26T18:16:03Z</time>
      </trkpt>
      <trkpt lat="61.860254" lon="6.816041">
        <ele>14.176</ele>
        <time>2012-07-26T18:16:19Z</time>
      </trkpt>
      <trkpt lat="61.861179" lon="6.819199">
        <ele>11.767</ele>
        <time>2012-07-26T18:16:53Z</time>
      </trkpt>
      <trkpt lat="61.863477" lon="6.824191">
        <ele>10.759</ele>
        <time>2012-07-26T18:17:54Z</time>
      </trkpt>
      <trkpt lat="61.863881" lon="6.824607">
        <ele>12.212</ele>
        <time>2012-07-26T18:18:05Z</time>
      </trkpt>
      <trkpt lat="61.864402" lon="6.824621">
        <ele>13.132</ele>
        <time>2012-07-26T18:18:20Z</time>
      </trkpt>
      <trkpt lat="61.865755" lon="6.823662">
        <ele>16.505</ele>
        <time>2012-07-26T18:19:02Z</time>
      </trkpt>
      <trkpt lat="61.866547" lon="6.821127">
        <ele>20.307</ele>
        <time>2012-07-26T18:19:56Z</time>
      </trkpt>
      <trkpt lat="61.867113" lon="6.822178">
        <ele>19.424</ele>
        <time>2012-07-26T18:20:20Z</time>
      </trkpt>
      <trkpt lat="61.867391" lon="6.823094">
        <ele>18.438</ele>
        <time>2012-07-26T18:20:33Z</time>
      </trkpt>
      <trkpt lat="61.867615" lon="6.824819">
        <ele>14.620</ele>
        <time>2012-07-26T18:20:48Z</time>
      </trkpt>
      <trkpt lat="61.868065" lon="6.826434">
        <ele>13.626</ele>
        <time>2012-07-26T18:21:03Z</time>
      </trkpt>
      <trkpt lat="61.868213" lon="6.828214">
        <ele>12.212</ele>
        <time>2012-07-26T18:21:19Z</time>
      </trkpt>
      <trkpt lat="61.868136" lon="6.831856">
        <ele>10.783</ele>
        <time>2012-07-26T18:21:54Z</time>
      </trkpt>
      <trkpt lat="61.867497" lon="6.838731">
        <ele>10.755</ele>
        <time>2012-07-26T18:23:02Z</time>
      </trkpt>
      <trkpt lat="61.865701" lon="6.846094">
        <ele>9.875</ele>
        <time>2012-07-26T18:24:20Z</time>
      </trkpt>
      <trkpt lat="61.865688" lon="6.847988">
        <ele>11.728</ele>
        <time>2012-07-26T18:24:59Z</time>
      </trkpt>
      <trkpt lat="61.866281" lon="6.849540">
        <ele>10.720</ele>
        <time>2012-07-26T18:26:44Z</time>
      </trkpt>
      <trkpt lat="61.867555" lon="6.850279">
        <ele>10.207</ele>
        <time>2012-07-26T18:27:24Z</time>
      </trkpt>
      <trkpt lat="61.867691" lon="6.849441">
        <ele>9.890</ele>
        <time>2012-07-26T19:51:37Z</time>
      </trkpt>
    </trkseg>
  </trk>
</gpx>
